Observation data for Fort Lewis CO on 11/14/2019      Previous  Date       Current Mesonet Observations  Soil Data  Daily Summary Page  Observations in Plain Language
KFL1 140600Z 04006KT M02/M11 A302 RMK A01 T10151112  RH  047%=      5-min Rain = 0
KFL1 140601Z 04006KT M02/M11 A302 RMK A01 T10161112  RH  048%=      5-min Rain = 0
KFL1 140602Z 04006KT M02/M11 A302 RMK A01 T10151112  RH  048%=      5-min Rain = 0
KFL1 140603Z 04006KT M02/M11 A302 RMK A01 T10151113  RH  047%=      5-min Rain = 0
KFL1 140604Z 04007KT M01/M11 A302 RMK A01 T10111111  RH  047%=      5-min Rain = 0
KFL1 140605Z 04007KT M01/M11 A302 RMK A01 T10061110  RH  046%=      5-min Rain = 0
KFL1 140606Z 04007KT M00/M11 A302 RMK A01 T10021109  RH  044%=      5-min Rain = 0
KFL1 140607Z 04006KT 00/M11 A302 RMK A01 T00031109  RH  043%=      5-min Rain = 0
KFL1 140608Z 03009KT 00/M11 A302 RMK A01 T00031111  RH  042%=      5-min Rain = 0
KFL1 140609Z 03009KT M00/M12 A302 RMK A01 T10011116  RH  042%=      5-min Rain = 0
KFL1 140610Z 04008KT M01/M12 A302 RMK A01 T10071120  RH  042%=      5-min Rain = 0
KFL1 140611Z 04008KT M01/M12 A302 RMK A01 T10081117  RH  044%=      5-min Rain = 0
KFL1 140612Z 04007KT M01/M11 A302 RMK A01 T10051114  RH  044%=      5-min Rain = 0
KFL1 140613Z 04008KT 00/M11 A302 RMK A01 T00011110  RH  043%=      5-min Rain = 0
KFL1 140614Z 04007KT 01/M11 A302 RMK A01 T00091108  RH  041%=      5-min Rain = 0
KFL1 140615Z 04007KT 01/M11 A302 RMK A01 T00121109  RH  040%=      5-min Rain = 0
KFL1 140616Z 04006KT 01/M11 A302 RMK A01 T00131110  RH  039%=      5-min Rain = 0
KFL1 140617Z 04007KT 01/M11 A302 RMK A01 T00091114  RH  039%=      5-min Rain = 0
KFL1 140618Z 04007KT 01/M11 A302 RMK A01 T00071113  RH  040%=      5-min Rain = 0
KFL1 140619Z 04007KT 01/M11 A302 RMK A01 T00061113  RH  040%=      5-min Rain = 0
KFL1 140620Z 04007KT 01/M11 A302 RMK A01 T00141109  RH  040%=      5-min Rain = 0
KFL1 140621Z 04007KT 02/M11 A302 RMK A01 T00221107  RH  038%=      5-min Rain = 0
KFL1 140622Z 04007KT 03/M11 A302 RMK A01 T00251109  RH  036%=      5-min Rain = 0
KFL1 140623Z 04007KT 03/M11 A302 RMK A01 T00281110  RH  035%=      5-min Rain = 0
KFL1 140624Z 04008KT 03/M11 A302 RMK A01 T00311110  RH  035%=      5-min Rain = 0
KFL1 140625Z 04007KT 03/M11 A302 RMK A01 T00321112  RH  034%=      5-min Rain = 0
KFL1 140626Z 04007KT 03/M11 A302 RMK A01 T00331112  RH  034%=      5-min Rain = 0
KFL1 140627Z 04006KT 03/M11 A302 RMK A01 T00291114  RH  034%=      5-min Rain = 0
KFL1 140628Z 04006KT 03/M11 A302 RMK A01 T00271113  RH  035%=      5-min Rain = 0
KFL1 140629Z 04006KT 03/M11 A302 RMK A01 T00261113  RH  035%=      5-min Rain = 0
KFL1 140630Z 04007KT 02/M12 A302 RMK A01 T00221115  RH  036%=      5-min Rain = 0
KFL1 140631Z 04006KT 02/M12 A302 RMK A01 T00191116  RH  036%=      5-min Rain = 0
KFL1 140632Z 04007KT 02/M11 A302 RMK A01 T00201114  RH  036%=      5-min Rain = 0
KFL1 140633Z 04007KT 02/M12 A3019 RMK A01 T00201115  RH  036%=      5-min Rain = 0
KFL1 140634Z 04008KT 02/M12 A3019 RMK A01 T00231115  RH  035%=      5-min Rain = 0
KFL1 140635Z 03008KT 03/M12 A3019 RMK A01 T00251115  RH  035%=      5-min Rain = 0
KFL1 140636Z 04008KT 03/M12 A3019 RMK A01 T00261115  RH  034%=      5-min Rain = 0
KFL1 140637Z 04008KT 03/M12 A3019 RMK A01 T00261118  RH  034%=      5-min Rain = 0
KFL1 140638Z 04008KT 03/M12 A3019 RMK A01 T00251118  RH  034%=      5-min Rain = 0
KFL1 140639Z 04008KT 03/M12 A3019 RMK A01 T00271117  RH  034%=      5-min Rain = 0
KFL1 140640Z 04008KT 03/M12 A3019 RMK A01 T00271118  RH  033%=      5-min Rain = 0
KFL1 140641Z 04008KT 03/M12 A3019 RMK A01 T00281118  RH  033%=      5-min Rain = 0
KFL1 140642Z 04008KT 03/M12 A3019 RMK A01 T00301117  RH  033%=      5-min Rain = 0
KFL1 140643Z 03007KT 03/M12 A3019 RMK A01 T00301116  RH  033%=      5-min Rain = 0
KFL1 140644Z 04005KT 03/M12 A3019 RMK A01 T00301116  RH  033%=      5-min Rain = 0
KFL1 140645Z 04007KT 02/M12 A3019 RMK A01 T00221120  RH  034%=      5-min Rain = 0
KFL1 140646Z 04007KT 01/M12 A3019 RMK A01 T00131123  RH  036%=      5-min Rain = 0
KFL1 140647Z 04006KT 01/M12 A3019 RMK A01 T00111121  RH  037%=      5-min Rain = 0
KFL1 140648Z 04007KT 02/M12 A3019 RMK A01 T00151118  RH  037%=      5-min Rain = 0
KFL1 140649Z 04007KT 02/M12 A3019 RMK A01 T00181118  RH  036%=      5-min Rain = 0
KFL1 140650Z 04007KT 02/M12 A3019 RMK A01 T00211118  RH  035%=      5-min Rain = 0
KFL1 140651Z 04007KT 02/M12 A3019 RMK A01 T00231118  RH  034%=      5-min Rain = 0
KFL1 140652Z 03005KT 02/M12 A3019 RMK A01 T00231119  RH  034%=      5-min Rain = 0
KFL1 140653Z 04005KT 02/M12 A3019 RMK A01 T00171121  RH  035%=      5-min Rain = 0
KFL1 140654Z 04004KT 01/M12 A3019 RMK A01 T00071124  RH  037%=      5-min Rain = 0
KFL1 140655Z 04005KT 00/13 A3019 RMK A01 T00-00-125  RH  038%=      5-min Rain = 0
KFL1 140656Z 03005KT M01/M13 A3019 RMK A01 T10051127  RH  039%=      5-min Rain = 0
KFL1 140657Z 03006KT M01/M13 A3019 RMK A01 T10071127  RH  040%=      5-min Rain = 0
KFL1 140658Z 04007KT M01/M13 A3019 RMK A01 T10091126  RH  041%=      5-min Rain = 0
KFL1 140659Z 04007KT M01/M13 A3019 RMK A01 T10081126  RH  041%=      5-min Rain = 0
KFL1 140700Z 04006KT M01/M13 A3019 RMK A01 T10071125  RH  040%=      5-min Rain = 0
KFL1 140701Z 03007KT M01/M13 A3019 RMK A01 T10061127  RH  039%=      5-min Rain = 0
KFL1 140702Z 03007KT M00/M13 A3019 RMK A01 T10041128  RH  039%=      5-min Rain = 0
KFL1 140703Z 03007KT M00/M13 A3019 RMK A01 T10031129  RH  038%=      5-min Rain = 0
KFL1 140704Z 03006KT M01/M13 A302 RMK A01 T10071129  RH  039%=      5-min Rain = 0
KFL1 140705Z 03007KT M01/M13 A302 RMK A01 T10121129  RH  041%=      5-min Rain = 0
KFL1 140706Z 03007KT M02/M13 A302 RMK A01 T10151129  RH  042%=      5-min Rain = 0
KFL1 140707Z 03007KT M01/M13 A302 RMK A01 T10141129  RH  041%=      5-min Rain = 0
KFL1 140708Z 04007KT M01/M13 A302 RMK A01 T10141131  RH  041%=      5-min Rain = 0
KFL1 140709Z 04006KT M01/M13 A302 RMK A01 T10101130  RH  040%=      5-min Rain = 0
KFL1 140710Z 03006KT M01/M13 A302 RMK A01 T10111131  RH  040%=      5-min Rain = 0
KFL1 140711Z 03004KT M02/M13 A302 RMK A01 T10201131  RH  042%=      5-min Rain = 0
KFL1 140712Z 03004KT M03/M13 A302 RMK A01 T10301131  RH  046%=      5-min Rain = 0
KFL1 140713Z 03005KT M04/M13 A302 RMK A01 T10361130  RH  048%=      5-min Rain = 0
KFL1 140714Z 03005KT M04/M13 A302 RMK A01 T10371129  RH  049%=      5-min Rain = 0
KFL1 140715Z 03006KT M04/M13 A302 RMK A01 T10381129  RH  049%=      5-min Rain = 0
KFL1 140716Z 03006KT M04/M13 A302 RMK A01 T10401129  RH  050%=      5-min Rain = 0
KFL1 140717Z 02006KT M04/M13 A302 RMK A01 T10391129  RH  049%=      5-min Rain = 0
KFL1 140718Z 03006KT M04/M13 A302 RMK A01 T10361127  RH  049%=      5-min Rain = 0
KFL1 140719Z 03006KT M04/M13 A302 RMK A01 T10371128  RH  049%=      5-min Rain = 0
KFL1 140720Z 03006KT M04/M13 A302 RMK A01 T10371129  RH  049%=      5-min Rain = 0
KFL1 140721Z 03006KT M04/M13 A302 RMK A01 T10371130  RH  049%=      5-min Rain = 0
KFL1 140722Z 03006KT M04/M13 A302 RMK A01 T10351130  RH  048%=      5-min Rain = 0
KFL1 140723Z 03005KT M03/M13 A302 RMK A01 T10341129  RH  048%=      5-min Rain = 0
KFL1 140724Z 03005KT M04/M13 A302 RMK A01 T10371130  RH  049%=      5-min Rain = 0
KFL1 140725Z 03005KT M04/M13 A302 RMK A01 T10391129  RH  050%=      5-min Rain = 0
KFL1 140726Z 02006KT M04/M13 A302 RMK A01 T10411129  RH  051%=      5-min Rain = 0
KFL1 140727Z 02006KT M04/M13 A302 RMK A01 T10441130  RH  051%=      5-min Rain = 0
KFL1 140728Z 02006KT M04/M13 A302 RMK A01 T10441129  RH  052%=      5-min Rain = 0
KFL1 140729Z 02005KT M05/M13 A302 RMK A01 T10481131  RH  052%=      5-min Rain = 0
KFL1 140730Z 02006KT M05/M13 A302 RMK A01 T10471130  RH  053%=      5-min Rain = 0
KFL1 140731Z 01005KT M05/M13 A302 RMK A01 T10471129  RH  053%=      5-min Rain = 0
KFL1 140732Z 01005KT M04/M13 A302 RMK A01 T10441128  RH  052%=      5-min Rain = 0
KFL1 140733Z 01005KT M04/M13 A302 RMK A01 T10411128  RH  051%=      5-min Rain = 0
KFL1 140734Z 02004KT M04/M13 A302 RMK A01 T10411129  RH  050%=      5-min Rain = 0
KFL1 140735Z 02004KT M04/M13 A302 RMK A01 T10431131  RH  050%=      5-min Rain = 0
KFL1 140736Z 01004KT M04/M13 A302 RMK A01 T10431131  RH  050%=      5-min Rain = 0
KFL1 140737Z 02003KT M04/M13 A302 RMK A01 T10441130  RH  051%=      5-min Rain = 0
KFL1 140738Z 02003KT M05/M13 A302 RMK A01 T10461130  RH  052%=      5-min Rain = 0
KFL1 140739Z 03003KT M05/M13 A302 RMK A01 T10471131  RH  052%=      5-min Rain = 0
KFL1 140740Z 00004KT M04/M13 A302 RMK A01 T10421130  RH  051%=      5-min Rain = 0
KFL1 140741Z 02004KT M04/M13 A302 RMK A01 T10411129  RH  050%=      5-min Rain = 0
KFL1 140742Z 00005KT M04/M13 A302 RMK A01 T10431132  RH  050%=      5-min Rain = 0
KFL1 140743Z 00003KT M04/M13 A302 RMK A01 T10401131  RH  049%=      5-min Rain = 0
KFL1 140744Z 36003KT M04/M13 A302 RMK A01 T10391131  RH  049%=      5-min Rain = 0
KFL1 140745Z 35004KT M04/M13 A302 RMK A01 T10411132  RH  050%=      5-min Rain = 0
KFL1 140746Z 35004KT M04/M13 A302 RMK A01 T10431131  RH  050%=      5-min Rain = 0
KFL1 140747Z 35005KT M05/M13 A302 RMK A01 T10461132  RH  051%=      5-min Rain = 0
KFL1 140748Z 34004KT M05/M13 A302 RMK A01 T10461131  RH  052%=      5-min Rain = 0
KFL1 140749Z 34003KT M05/M13 A302 RMK A01 T10481131  RH  052%=      5-min Rain = 0
KFL1 140750Z 02003KT M05/M13 A302 RMK A01 T10461131  RH  052%=      5-min Rain = 0
KFL1 140751Z 03002KT M04/M13 A302 RMK A01 T10441131  RH  051%=      5-min Rain = 0
KFL1 140752Z 02003KT M04/M13 A302 RMK A01 T10401130  RH  050%=      5-min Rain = 0
KFL1 140753Z 07002KT M04/M13 A302 RMK A01 T10391132  RH  049%=      5-min Rain = 0
KFL1 140754Z 05003KT M04/M13 A302 RMK A01 T10391133  RH  048%=      5-min Rain = 0
KFL1 140755Z 05004KT M04/M13 A3021 RMK A01 T10381134  RH  047%=      5-min Rain = 0
KFL1 140756Z 04004KT M04/M14 A3021 RMK A01 T10391135  RH  047%=      5-min Rain = 0
KFL1 140757Z 04004KT M04/M14 A3021 RMK A01 T10381135  RH  047%=      5-min Rain = 0
KFL1 140758Z 04004KT M03/M13 A3021 RMK A01 T10341133  RH  046%=      5-min Rain = 0
KFL1 140759Z 03004KT M03/M13 A3021 RMK A01 T10301131  RH  045%=      5-min Rain = 0
KFL1 140800Z 01003KT M03/M13 A3021 RMK A01 T10261132  RH  044%=      5-min Rain = 0
KFL1 140801Z 35001KT M02/M13 A3021 RMK A01 T10221132  RH  043%=      5-min Rain = 0
KFL1 140802Z 01002KT M02/M13 A3021 RMK A01 T10181132  RH  041%=      5-min Rain = 0
KFL1 140803Z 35003KT M02/M13 A3021 RMK A01 T10161133  RH  040%=      5-min Rain = 0
KFL1 140804Z 01002KT M02/M13 A3021 RMK A01 T10161132  RH  041%=      5-min Rain = 0
KFL1 140805Z 01002KT M02/M13 A3021 RMK A01 T10221133  RH  042%=      5-min Rain = 0
KFL1 140806Z 35002KT M03/M13 A3021 RMK A01 T10251133  RH  043%=      5-min Rain = 0
KFL1 140807Z 01002KT M02/M13 A3021 RMK A01 T10221131  RH  043%=      5-min Rain = 0
KFL1 140808Z 00001KT M02/M13 A3021 RMK A01 T10201131  RH  042%=      5-min Rain = 0
KFL1 140809Z 01002KT M02/M13 A3021 RMK A01 T10171129  RH  042%=      5-min Rain = 0
KFL1 140810Z 01002KT M02/M13 A3021 RMK A01 T10191131  RH  042%=      5-min Rain = 0
KFL1 140811Z 02002KT M02/M13 A3021 RMK A01 T10191130  RH  042%=      5-min Rain = 0
KFL1 140812Z 02002KT M02/M13 A3021 RMK A01 T10171129  RH  042%=      5-min Rain = 0
KFL1 140813Z 03003KT M02/M13 A3021 RMK A01 T10241131  RH  044%=      5-min Rain = 0
KFL1 140814Z 03003KT M03/M13 A3021 RMK A01 T10291131  RH  045%=      5-min Rain = 0
KFL1 140815Z 04003KT M03/M13 A3021 RMK A01 T10311132  RH  046%=      5-min Rain = 0
KFL1 140816Z 03003KT M03/M13 A3021 RMK A01 T10251130  RH  044%=      5-min Rain = 0
KFL1 140817Z 03003KT M02/M13 A3021 RMK A01 T10191130  RH  043%=      5-min Rain = 0
KFL1 140818Z 02003KT M01/M13 A3021 RMK A01 T10141129  RH  041%=      5-min Rain = 0
KFL1 140819Z 01003KT M01/M13 A3021 RMK A01 T10131131  RH  040%=      5-min Rain = 0
KFL1 140820Z 01003KT M02/M13 A3022 RMK A01 T10191132  RH  041%=      5-min Rain = 0
KFL1 140821Z 02003KT M03/M13 A3022 RMK A01 T10251133  RH  043%=      5-min Rain = 0
KFL1 140822Z 03003KT M03/M13 A3022 RMK A01 T10291133  RH  044%=      5-min Rain = 0
KFL1 140823Z 04004KT M03/M13 A3022 RMK A01 T10261132  RH  044%=      5-min Rain = 0
KFL1 140824Z 05004KT M02/M13 A3022 RMK A01 T10221131  RH  043%=      5-min Rain = 0
KFL1 140825Z 05005KT M02/M13 A3022 RMK A01 T10201131  RH  043%=      5-min Rain = 0
KFL1 140826Z 05007KT M02/M13 A3022 RMK A01 T10211133  RH  042%=      5-min Rain = 0
KFL1 140827Z 05008KT M02/M13 A3022 RMK A01 T10221134  RH  042%=      5-min Rain = 0
KFL1 140828Z 05008KT M02/M14 A3022 RMK A01 T10241137  RH  042%=      5-min Rain = 0
KFL1 140829Z 05008KT M02/M14 A3022 RMK A01 T10231136  RH  042%=      5-min Rain = 0
KFL1 140830Z 05007KT M02/M14 A3022 RMK A01 T10231136  RH  042%=      5-min Rain = 0
KFL1 140831Z 05006KT M02/M13 A3022 RMK A01 T10191134  RH  041%=      5-min Rain = 0
KFL1 140832Z 05005KT M02/M14 A3022 RMK A01 T10171135  RH  040%=      5-min Rain = 0
KFL1 140833Z 05005KT M01/M13 A3022 RMK A01 T10121133  RH  039%=      5-min Rain = 0
KFL1 140834Z 05006KT M01/M13 A3022 RMK A01 T10101134  RH  038%=      5-min Rain = 0
KFL1 140835Z 05006KT M01/M13 A3022 RMK A01 T10071134  RH  038%=      5-min Rain = 0
KFL1 140836Z 05006KT M01/M14 A3022 RMK A01 T10061135  RH  037%=      5-min Rain = 0
KFL1 140837Z 04005KT M00/M13 A3022 RMK A01 T10041134  RH  037%=      5-min Rain = 0
KFL1 140838Z 04005KT M00/M14 A3022 RMK A01 T10031135  RH  036%=      5-min Rain = 0
KFL1 140839Z 04005KT 00/13 A3022 RMK A01 T00000-132  RH  036%=      5-min Rain = 0
KFL1 140840Z 04005KT 00/13 A3022 RMK A01 T00000-134  RH  036%=      5-min Rain = 0
KFL1 140841Z 04005KT 00/M14 A3022 RMK A01 T00011135  RH  035%=      5-min Rain = 0
KFL1 140842Z 04005KT 00/M13 A3022 RMK A01 T00011134  RH  035%=      5-min Rain = 0
KFL1 140843Z 05005KT 00/M13 A3022 RMK A01 T00031134  RH  035%=      5-min Rain = 0
KFL1 140844Z 05005KT 00/M13 A3022 RMK A01 T00021134  RH  035%=      5-min Rain = 0
KFL1 140845Z 05005KT M00/M13 A3022 RMK A01 T10031134  RH  036%=      5-min Rain = 0
KFL1 140846Z 05004KT M01/M14 A3022 RMK A01 T10121135  RH  039%=      5-min Rain = 0
KFL1 140847Z 05005KT M02/M13 A3022 RMK A01 T10151133  RH  040%=      5-min Rain = 0
KFL1 140848Z 04006KT M01/M13 A3022 RMK A01 T10101130  RH  040%=      5-min Rain = 0
KFL1 140849Z 04005KT M01/M13 A3022 RMK A01 T10061132  RH  038%=      5-min Rain = 0
KFL1 140850Z 04005KT M00/M13 A3022 RMK A01 T10011131  RH  037%=      5-min Rain = 0
KFL1 140851Z 04005KT 00/M13 A3022 RMK A01 T00041129  RH  036%=      5-min Rain = 0
KFL1 140852Z 04004KT 00/M13 A3022 RMK A01 T00031130  RH  036%=      5-min Rain = 0
KFL1 140853Z 04004KT M01/M14 A3022 RMK A01 T10131137  RH  038%=      5-min Rain = 0
KFL1 140854Z 04004KT M03/M14 A3022 RMK A01 T10271137  RH  042%=      5-min Rain = 0
KFL1 140855Z 04005KT M03/M13 A3022 RMK A01 T10331134  RH  046%=      5-min Rain = 0
KFL1 140856Z 03005KT M04/M13 A3022 RMK A01 T10371132  RH  048%=      5-min Rain = 0
KFL1 140857Z 04005KT M04/M13 A3022 RMK A01 T10411131  RH  050%=      5-min Rain = 0
KFL1 140858Z 04004KT M04/M13 A3022 RMK A01 T10421130  RH  051%=      5-min Rain = 0
KFL1 140859Z 04004KT M04/M13 A3022 RMK A01 T10421129  RH  051%=      5-min Rain = 0
KFL1 140900Z 04004KT M04/M13 A3022 RMK A01 T10411126  RH  051%=      5-min Rain = 0
KFL1 140901Z 05005KT M04/M12 A3022 RMK A01 T10361122  RH  051%=      5-min Rain = 0
KFL1 140902Z 05004KT M03/M12 A3022 RMK A01 T10301119  RH  050%=      5-min Rain = 0
KFL1 140903Z 04004KT M02/M12 A3022 RMK A01 T10241119  RH  048%=      5-min Rain = 0
KFL1 140904Z 03004KT M03/M12 A3023 RMK A01 T10261123  RH  047%=      5-min Rain = 0
KFL1 140905Z 04005KT M04/M13 A3023 RMK A01 T10351128  RH  048%=      5-min Rain = 0
KFL1 140906Z 04005KT M04/M13 A3022 RMK A01 T10421130  RH  050%=      5-min Rain = 0
KFL1 140907Z 04004KT M05/M13 A3022 RMK A01 T10461129  RH  052%=      5-min Rain = 0
KFL1 140908Z 04005KT M05/M13 A3023 RMK A01 T10481128  RH  053%=      5-min Rain = 0
KFL1 140909Z 04005KT M05/M13 A3023 RMK A01 T10521129  RH  055%=      5-min Rain = 0
KFL1 140910Z 04005KT M06/M13 A3023 RMK A01 T10581132  RH  056%=      5-min Rain = 0
KFL1 140911Z 04005KT M06/M13 A3023 RMK A01 T10621131  RH  058%=      5-min Rain = 0
KFL1 140912Z 03005KT M06/M13 A3023 RMK A01 T10641131  RH  059%=      5-min Rain = 0
KFL1 140913Z 03005KT M06/M13 A3023 RMK A01 T10641129  RH  060%=      5-min Rain = 0
KFL1 140914Z 03004KT M07/M13 A3023 RMK A01 T10661130  RH  061%=      5-min Rain = 0
KFL1 140915Z 04004KT M07/M13 A3023 RMK A01 T10671129  RH  061%=      5-min Rain = 0
KFL1 140916Z 04004KT M07/M13 A3023 RMK A01 T10661128  RH  061%=      5-min Rain = 0
KFL1 140917Z 04004KT M06/M13 A3022 RMK A01 T10621126  RH  060%=      5-min Rain = 0
KFL1 140918Z 04005KT M06/M13 A3022 RMK A01 T10581127  RH  058%=      5-min Rain = 0
KFL1 140919Z 04005KT M06/M13 A3023 RMK A01 T10551127  RH  057%=      5-min Rain = 0
KFL1 140920Z 04005KT M06/M13 A3023 RMK A01 T10561128  RH  057%=      5-min Rain = 0
KFL1 140921Z 04005KT M06/M13 A3022 RMK A01 T10571128  RH  057%=      5-min Rain = 0
KFL1 140922Z 05005KT M06/M13 A3022 RMK A01 T10571126  RH  058%=      5-min Rain = 0
KFL1 140923Z 04005KT M06/M13 A3022 RMK A01 T10581127  RH  058%=      5-min Rain = 0
KFL1 140924Z 03005KT M06/M13 A3022 RMK A01 T10571126  RH  058%=      5-min Rain = 0
KFL1 140925Z 02005KT M06/M13 A3023 RMK A01 T10621129  RH  059%=      5-min Rain = 0
KFL1 140926Z 02006KT M06/M13 A3022 RMK A01 T10621129  RH  059%=      5-min Rain = 0
KFL1 140927Z 02005KT M06/M13 A3022 RMK A01 T10591127  RH  059%=      5-min Rain = 0
KFL1 140928Z 03004KT M06/M13 A3022 RMK A01 T10571127  RH  058%=      5-min Rain = 0
KFL1 140929Z 04004KT M06/M13 A3022 RMK A01 T10571128  RH  057%=      5-min Rain = 0
KFL1 140930Z 05003KT M06/M13 A3022 RMK A01 T10551126  RH  057%=      5-min Rain = 0
KFL1 140931Z 05003KT M06/M13 A3022 RMK A01 T10551126  RH  057%=      5-min Rain = 0
KFL1 140932Z 03003KT M06/M13 A3022 RMK A01 T10571128  RH  057%=      5-min Rain = 0
KFL1 140933Z 01005KT M06/M13 A3022 RMK A01 T10591129  RH  058%=      5-min Rain = 0
KFL1 140934Z 01005KT M06/M13 A3022 RMK A01 T10601128  RH  058%=      5-min Rain = 0
KFL1 140935Z 02004KT M06/M13 A3022 RMK A01 T10601129  RH  058%=      5-min Rain = 0
KFL1 140936Z 02004KT M06/M13 A3022 RMK A01 T10561128  RH  057%=      5-min Rain = 0
KFL1 140937Z 02004KT M05/M13 A3022 RMK A01 T10541128  RH  056%=      5-min Rain = 0
KFL1 140938Z 02004KT M05/M13 A3023 RMK A01 T10541129  RH  056%=      5-min Rain = 0
KFL1 140939Z 03004KT M06/M13 A3023 RMK A01 T10551128  RH  056%=      5-min Rain = 0
KFL1 140940Z 03005KT M06/M13 A3023 RMK A01 T10561127  RH  057%=      5-min Rain = 0
KFL1 140941Z 01005KT M05/M12 A3023 RMK A01 T10501124  RH  056%=      5-min Rain = 0
KFL1 140942Z 01007KT M04/M12 A3023 RMK A01 T10441124  RH  053%=      5-min Rain = 0
KFL1 140943Z 01007KT M04/M13 A3023 RMK A01 T10431126  RH  052%=      5-min Rain = 0
KFL1 140944Z 02006KT M05/M13 A3023 RMK A01 T10461130  RH  052%=      5-min Rain = 0
KFL1 140945Z 02005KT M05/M13 A3023 RMK A01 T10491129  RH  053%=      5-min Rain = 0
KFL1 140946Z 02005KT M05/M13 A3023 RMK A01 T10501129  RH  054%=      5-min Rain = 0
KFL1 140947Z 03004KT M05/M13 A3023 RMK A01 T10471126  RH  054%=      5-min Rain = 0
KFL1 140948Z 04004KT M04/M12 A3023 RMK A01 T10431124  RH  053%=      5-min Rain = 0
KFL1 140949Z 04004KT M04/M13 A3023 RMK A01 T10411126  RH  052%=      5-min Rain = 0
KFL1 140950Z 04004KT M04/M13 A3023 RMK A01 T10441128  RH  052%=      5-min Rain = 0
KFL1 140951Z 02005KT M05/M13 A3023 RMK A01 T10471128  RH  053%=      5-min Rain = 0
KFL1 140952Z 02006KT M05/M13 A3023 RMK A01 T10491128  RH  054%=      5-min Rain = 0
KFL1 140953Z 01006KT M05/M13 A3023 RMK A01 T10511128  RH  055%=      5-min Rain = 0
KFL1 140954Z 01005KT M06/M13 A3023 RMK A01 T10551128  RH  056%=      5-min Rain = 0
KFL1 140955Z 01004KT M06/M13 A3023 RMK A01 T10561127  RH  057%=      5-min Rain = 0
KFL1 140956Z 02003KT M06/M13 A3023 RMK A01 T10561126  RH  058%=      5-min Rain = 0
KFL1 140957Z 03004KT M06/M13 A3023 RMK A01 T10571127  RH  058%=      5-min Rain = 0
KFL1 140958Z 03003KT M06/M13 A3023 RMK A01 T10571126  RH  058%=      5-min Rain = 0
KFL1 140959Z 03004KT M06/M13 A3023 RMK A01 T10591127  RH  059%=      5-min Rain = 0
KFL1 141000Z 02006KT M06/M12 A3023 RMK A01 T10571124  RH  059%=      5-min Rain = 0
KFL1 141001Z 02006KT M05/M12 A3023 RMK A01 T10531123  RH  058%=      5-min Rain = 0
KFL1 141002Z 03006KT M05/M12 A3023 RMK A01 T10471122  RH  056%=      5-min Rain = 0
KFL1 141003Z 02005KT M04/M12 A3023 RMK A01 T10431123  RH  054%=      5-min Rain = 0
KFL1 141004Z 03005KT M04/M12 A3023 RMK A01 T10401124  RH  052%=      5-min Rain = 0
KFL1 141005Z 04005KT M04/M13 A3023 RMK A01 T10431127  RH  052%=      5-min Rain = 0
KFL1 141006Z 04004KT M05/M13 A3023 RMK A01 T10461126  RH  054%=      5-min Rain = 0
KFL1 141007Z 03004KT M05/M13 A3023 RMK A01 T10511127  RH  055%=      5-min Rain = 0
KFL1 141008Z 02006KT M05/M13 A3023 RMK A01 T10501125  RH  056%=      5-min Rain = 0
KFL1 141009Z 03007KT M05/M12 A3023 RMK A01 T10491124  RH  056%=      5-min Rain = 0
KFL1 141010Z 03007KT M05/M12 A3023 RMK A01 T10471123  RH  055%=      5-min Rain = 0
KFL1 141011Z 03006KT M05/M12 A3023 RMK A01 T10481123  RH  056%=      5-min Rain = 0
KFL1 141012Z 03005KT M05/M13 A3023 RMK A01 T10541126  RH  057%=      5-min Rain = 0
KFL1 141013Z 03005KT M06/M13 A3023 RMK A01 T10551125  RH  058%=      5-min Rain = 0
KFL1 141014Z 04004KT M06/M12 A3023 RMK A01 T10551124  RH  058%=      5-min Rain = 0
KFL1 141015Z 05006KT M05/M12 A3023 RMK A01 T10531124  RH  057%=      5-min Rain = 0
KFL1 141016Z 04008KT M05/M12 A3023 RMK A01 T10471124  RH  055%=      5-min Rain = 0
KFL1 141017Z 04008KT M04/M12 A3023 RMK A01 T10381121  RH  052%=      5-min Rain = 0
KFL1 141018Z 03008KT M03/M12 A3023 RMK A01 T10251117  RH  049%=      5-min Rain = 0
KFL1 141019Z 04007KT M02/M12 A3023 RMK A01 T10171118  RH  046%=      5-min Rain = 0
KFL1 141020Z 04006KT M01/M12 A3023 RMK A01 T10141121  RH  044%=      5-min Rain = 0
KFL1 141021Z 04007KT M02/M13 A3023 RMK A01 T10151125  RH  043%=      5-min Rain = 0
KFL1 141022Z 04008KT M01/M13 A3023 RMK A01 T10141125  RH  042%=      5-min Rain = 0
KFL1 141023Z 04006KT M01/M13 A3023 RMK A01 T10141127  RH  042%=      5-min Rain = 0
KFL1 141024Z 04008KT M01/M13 A3023 RMK A01 T10141128  RH  042%=      5-min Rain = 0
KFL1 141025Z 05007KT M01/M13 A3023 RMK A01 T10141127  RH  042%=      5-min Rain = 0
KFL1 141026Z 05007KT M01/M13 A3023 RMK A01 T10141127  RH  042%=      5-min Rain = 0
KFL1 141027Z 04006KT M01/M12 A3023 RMK A01 T10091124  RH  041%=      5-min Rain = 0
KFL1 141028Z 04006KT M01/M13 A3023 RMK A01 T10071126  RH  040%=      5-min Rain = 0
KFL1 141029Z 04007KT M00/M13 A3023 RMK A01 T10031125  RH  039%=      5-min Rain = 0
KFL1 141030Z 03008KT M00/M13 A3023 RMK A01 T10021125  RH  039%=      5-min Rain = 0
KFL1 141031Z 02007KT M00/M13 A3023 RMK A01 T10011125  RH  039%=      5-min Rain = 0
KFL1 141032Z 02008KT M01/M13 A3023 RMK A01 T10131131  RH  040%=      5-min Rain = 0
KFL1 141033Z 03008KT M03/M13 A3023 RMK A01 T10261134  RH  043%=      5-min Rain = 0
KFL1 141034Z 04007KT M03/M13 A3023 RMK A01 T10331133  RH  046%=      5-min Rain = 0
KFL1 141035Z 04006KT M03/M13 A3023 RMK A01 T10331129  RH  048%=      5-min Rain = 0
KFL1 141036Z 04004KT M03/M13 A3023 RMK A01 T10311126  RH  048%=      5-min Rain = 0
KFL1 141037Z 03005KT M03/M13 A3023 RMK A01 T10301125  RH  048%=      5-min Rain = 0
KFL1 141038Z 03006KT M03/M13 A3023 RMK A01 T10311125  RH  048%=      5-min Rain = 0
KFL1 141039Z 03006KT M04/M13 A3023 RMK A01 T10391128  RH  050%=      5-min Rain = 0
KFL1 141040Z 04005KT M05/M13 A3023 RMK A01 T10451128  RH  052%=      5-min Rain = 0
KFL1 141041Z 03004KT M05/M13 A3023 RMK A01 T10461126  RH  054%=      5-min Rain = 0
KFL1 141042Z 03004KT M05/M13 A3023 RMK A01 T10461126  RH  054%=      5-min Rain = 0
KFL1 141043Z 03004KT M04/M12 A3023 RMK A01 T10431124  RH  053%=      5-min Rain = 0
KFL1 141044Z 03005KT M05/M13 A3023 RMK A01 T10461125  RH  054%=      5-min Rain = 0
KFL1 141045Z 04004KT M05/M12 A3023 RMK A01 T10481124  RH  055%=      5-min Rain = 0
KFL1 141046Z 04003KT M05/M12 A3023 RMK A01 T10491123  RH  056%=      5-min Rain = 0
KFL1 141047Z 04004KT M05/M12 A3023 RMK A01 T10501124  RH  056%=      5-min Rain = 0
KFL1 141048Z 04005KT M05/M13 A3023 RMK A01 T10521125  RH  056%=      5-min Rain = 0
KFL1 141049Z 04005KT M06/M13 A3023 RMK A01 T10551127  RH  057%=      5-min Rain = 0
KFL1 141050Z 04004KT M06/M13 A3023 RMK A01 T10561126  RH  058%=      5-min Rain = 0
KFL1 141051Z 04004KT M05/M13 A3023 RMK A01 T10541126  RH  057%=      5-min Rain = 0
KFL1 141052Z 04005KT M05/M13 A3023 RMK A01 T10491125  RH  055%=      5-min Rain = 0
KFL1 141053Z 04004KT M04/M12 A3023 RMK A01 T10441123  RH  054%=      5-min Rain = 0
KFL1 141054Z 04005KT M04/M13 A3023 RMK A01 T10411125  RH  052%=      5-min Rain = 0
KFL1 141055Z 04005KT M04/M13 A3023 RMK A01 T10391125  RH  051%=      5-min Rain = 0
KFL1 141056Z 05006KT M04/M13 A3023 RMK A01 T10401126  RH  051%=      5-min Rain = 0
KFL1 141057Z 05007KT M04/M13 A3023 RMK A01 T10381127  RH  050%=      5-min Rain = 0
KFL1 141058Z 03006KT M03/M13 A3023 RMK A01 T10331125  RH  049%=      5-min Rain = 0
KFL1 141059Z 03004KT M03/M13 A3023 RMK A01 T10291125  RH  048%=      5-min Rain = 0
KFL1 141100Z 04004KT M03/M13 A3024 RMK A01 T10311126  RH  048%=      5-min Rain = 0
KFL1 141101Z 05006KT M04/M13 A3024 RMK A01 T10411130  RH  050%=      5-min Rain = 0
KFL1 141102Z 04009KT M04/M13 A3024 RMK A01 T10431129  RH  051%=      5-min Rain = 0
KFL1 141103Z 05010KT M04/M13 A3023 RMK A01 T10371126  RH  050%=      5-min Rain = 0
KFL1 141104Z 05010KT M03/M13 A3023 RMK A01 T10311127  RH  048%=      5-min Rain = 0
KFL1 141105Z 05008KT M03/M13 A3023 RMK A01 T10281128  RH  046%=      5-min Rain = 0
KFL1 141106Z 04007KT M03/M13 A3024 RMK A01 T10251128  RH  045%=      5-min Rain = 0
KFL1 141107Z 04007KT M02/M13 A3024 RMK A01 T10221128  RH  044%=      5-min Rain = 0
KFL1 141108Z 04007KT M02/M13 A3024 RMK A01 T10201129  RH  043%=      5-min Rain = 0
KFL1 141109Z 05007KT M02/M13 A3024 RMK A01 T10161127  RH  043%=      5-min Rain = 0
KFL1 141110Z 06007KT M01/M13 A3023 RMK A01 T10131127  RH  042%=      5-min Rain = 0
KFL1 141111Z 05007KT M01/M13 A3023 RMK A01 T10081125  RH  041%=      5-min Rain = 0
KFL1 141112Z 04006KT M01/M13 A3024 RMK A01 T10061126  RH  040%=      5-min Rain = 0
KFL1 141113Z 02006KT M00/M13 A3024 RMK A01 T10041126  RH  039%=      5-min Rain = 0
KFL1 141114Z 02007KT M02/M13 A3024 RMK A01 T10191133  RH  042%=      5-min Rain = 0
KFL1 141115Z 03009KT M04/M14 A3024 RMK A01 T10371137  RH  046%=      5-min Rain = 0
KFL1 141116Z 04009KT M04/M13 A3024 RMK A01 T10421134  RH  049%=      5-min Rain = 0
KFL1 141117Z 04008KT M04/M13 A3024 RMK A01 T10431130  RH  050%=      5-min Rain = 0
KFL1 141118Z 04007KT M04/M13 A3024 RMK A01 T10411128  RH  051%=      5-min Rain = 0
KFL1 141119Z 04007KT M04/M12 A3024 RMK A01 T10371124  RH  051%=      5-min Rain = 0
KFL1 141120Z 03006KT M03/M12 A3024 RMK A01 T10311121  RH  050%=      5-min Rain = 0
KFL1 141121Z 04007KT M02/M12 A3024 RMK A01 T10241121  RH  047%=      5-min Rain = 0
KFL1 141122Z 03007KT M02/M12 A3024 RMK A01 T10161120  RH  045%=      5-min Rain = 0
KFL1 141123Z 04006KT M01/M12 A3024 RMK A01 T10141124  RH  043%=      5-min Rain = 0
KFL1 141124Z 04006KT M02/M13 A3024 RMK A01 T10151126  RH  043%=      5-min Rain = 0
KFL1 141125Z 05004KT M02/M13 A3024 RMK A01 T10171126  RH  043%=      5-min Rain = 0
KFL1 141126Z 03006KT M02/M13 A3024 RMK A01 T10161125  RH  043%=      5-min Rain = 0
KFL1 141127Z 03007KT M01/M12 A3024 RMK A01 T10131124  RH  043%=      5-min Rain = 0
KFL1 141128Z 03006KT M02/M13 A3024 RMK A01 T10171127  RH  043%=      5-min Rain = 0
KFL1 141129Z 04005KT M03/M13 A3024 RMK A01 T10271130  RH  045%=      5-min Rain = 0
KFL1 141130Z 04005KT M04/M13 A3024 RMK A01 T10351131  RH  047%=      5-min Rain = 0
KFL1 141131Z 03005KT M04/M13 A3024 RMK A01 T10391129  RH  050%=      5-min Rain = 0
KFL1 141132Z 02005KT M05/M13 A3024 RMK A01 T10491132  RH  052%=      5-min Rain = 0
KFL1 141133Z 03005KT M06/M13 A3024 RMK A01 T10561132  RH  055%=      5-min Rain = 0
KFL1 141134Z 03005KT M06/M13 A3024 RMK A01 T10601130  RH  057%=      5-min Rain = 0
KFL1 141135Z 03004KT M06/M13 A3024 RMK A01 T10611128  RH  059%=      5-min Rain = 0
KFL1 141136Z 00004KT M06/M13 A3024 RMK A01 T10601126  RH  060%=      5-min Rain = 0
KFL1 141137Z 36005KT M06/M13 A3024 RMK A01 T10571125  RH  058%=      5-min Rain = 0
KFL1 141138Z 01004KT M06/M13 A3024 RMK A01 T10571128  RH  057%=      5-min Rain = 0
KFL1 141139Z 02004KT M06/M13 A3024 RMK A01 T10591129  RH  057%=      5-min Rain = 0
KFL1 141140Z 03005KT M06/M13 A3024 RMK A01 T10611130  RH  058%=      5-min Rain = 0
KFL1 141141Z 02006KT M06/M13 A3024 RMK A01 T10621130  RH  058%=      5-min Rain = 0
KFL1 141142Z 02006KT M06/M13 A3025 RMK A01 T10621129  RH  059%=      5-min Rain = 0
KFL1 141143Z 03006KT M06/M13 A3025 RMK A01 T10641130  RH  059%=      5-min Rain = 0
KFL1 141144Z 03005KT M06/M13 A3025 RMK A01 T10621128  RH  059%=      5-min Rain = 0
KFL1 141145Z 02005KT M06/M13 A3025 RMK A01 T10571127  RH  058%=      5-min Rain = 0
KFL1 141146Z 02006KT M05/M12 A3025 RMK A01 T10501124  RH  056%=      5-min Rain = 0
KFL1 141147Z 04006KT M04/M13 A3025 RMK A01 T10441125  RH  053%=      5-min Rain = 0
KFL1 141148Z 05005KT M04/M13 A3025 RMK A01 T10401127  RH  051%=      5-min Rain = 0
KFL1 141149Z 05005KT M04/M13 A3025 RMK A01 T10381128  RH  050%=      5-min Rain = 0
KFL1 141150Z 04006KT M04/M13 A3025 RMK A01 T10391130  RH  049%=      5-min Rain = 0
KFL1 141151Z 03008KT M04/M13 A3025 RMK A01 T10381131  RH  049%=      5-min Rain = 0
KFL1 141152Z 03009KT M04/M13 A3025 RMK A01 T10391132  RH  048%=      5-min Rain = 0
KFL1 141153Z 04007KT M04/M13 A3025 RMK A01 T10371130  RH  048%=      5-min Rain = 0
KFL1 141154Z 04007KT M03/M13 A3025 RMK A01 T10311128  RH  047%=      5-min Rain = 0
KFL1 141155Z 04006KT M03/M13 A3025 RMK A01 T10251127  RH  045%=      5-min Rain = 0
KFL1 141156Z 03006KT M02/M13 A3025 RMK A01 T10211128  RH  044%=      5-min Rain = 0
KFL1 141157Z 02006KT M02/M13 A3025 RMK A01 T10171127  RH  043%=      5-min Rain = 0
KFL1 141158Z 01005KT M03/M13 A3025 RMK A01 T10281133  RH  044%=      5-min Rain = 0
KFL1 141159Z 01005KT M04/M14 A3025 RMK A01 T10401136  RH  047%=      5-min Rain = 0
KFL1 141200Z 02004KT M05/M14 A3025 RMK A01 T10491135  RH  051%=      5-min Rain = 0
KFL1 141201Z 03005KT M05/M13 A3025 RMK A01 T10521131  RH  054%=      5-min Rain = 0
KFL1 141202Z 03005KT M05/M13 A3025 RMK A01 T10511128  RH  054%=      5-min Rain = 0
KFL1 141203Z 02005KT M05/M13 A3025 RMK A01 T10471126  RH  054%=      5-min Rain = 0
KFL1 141204Z 01005KT M05/M13 A3025 RMK A01 T10541130  RH  055%=      5-min Rain = 0
KFL1 141205Z 01005KT M06/M13 A3025 RMK A01 T10581130  RH  057%=      5-min Rain = 0
KFL1 141206Z 01004KT M06/M13 A3025 RMK A01 T10611129  RH  058%=      5-min Rain = 0
KFL1 141207Z 02004KT M06/M13 A3025 RMK A01 T10611127  RH  060%=      5-min Rain = 0
KFL1 141208Z 04004KT M06/M12 A3025 RMK A01 T10571121  RH  060%=      5-min Rain = 0
KFL1 141209Z 03004KT M06/M12 A3025 RMK A01 T10571124  RH  059%=      5-min Rain = 0
KFL1 141210Z 01004KT M06/M12 A3025 RMK A01 T10561124  RH  059%=      5-min Rain = 0
KFL1 141211Z 00005KT M06/M13 A3025 RMK A01 T10551125  RH  058%=      5-min Rain = 0
KFL1 141212Z 01004KT M05/M12 A3025 RMK A01 T10531124  RH  057%=      5-min Rain = 0
KFL1 141213Z 03004KT M05/M12 A3025 RMK A01 T10471120  RH  057%=      5-min Rain = 0
KFL1 141214Z 02004KT M04/M12 A3025 RMK A01 T10361115  RH  054%=      5-min Rain = 0
KFL1 141215Z 02005KT M04/M12 A3025 RMK A01 T10411123  RH  053%=      5-min Rain = 0
KFL1 141216Z 02006KT M05/M13 A3025 RMK A01 T10521129  RH  055%=      5-min Rain = 0
KFL1 141217Z 03006KT M05/M12 A3025 RMK A01 T10521124  RH  057%=      5-min Rain = 0
KFL1 141218Z 03006KT M04/M12 A3025 RMK A01 T10441119  RH  056%=      5-min Rain = 0
KFL1 141219Z 02006KT M04/M12 A3025 RMK A01 T10351117  RH  053%=      5-min Rain = 0
KFL1 141220Z 02006KT M03/M12 A3025 RMK A01 T10281117  RH  051%=      5-min Rain = 0
KFL1 141221Z 02006KT M03/M12 A3025 RMK A01 T10261119  RH  049%=      5-min Rain = 0
KFL1 141222Z 02007KT M03/M12 A3025 RMK A01 T10281122  RH  048%=      5-min Rain = 0
KFL1 141223Z 02006KT M03/M12 A3025 RMK A01 T10311124  RH  049%=      5-min Rain = 0
KFL1 141224Z 01006KT M03/M12 A3025 RMK A01 T10321124  RH  049%=      5-min Rain = 0
KFL1 141225Z 01006KT M04/M12 A3026 RMK A01 T10351124  RH  050%=      5-min Rain = 0
KFL1 141226Z 00006KT M04/M12 A3026 RMK A01 T10391124  RH  052%=      5-min Rain = 0
KFL1 141227Z 01006KT M04/M12 A3026 RMK A01 T10431124  RH  053%=      5-min Rain = 0
KFL1 141228Z 02006KT M05/M12 A3026 RMK A01 T10481124  RH  055%=      5-min Rain = 0
KFL1 141229Z 02006KT M05/M13 A3026 RMK A01 T10531125  RH  057%=      5-min Rain = 0
KFL1 141230Z 02006KT M05/M12 A3026 RMK A01 T10531123  RH  058%=      5-min Rain = 0
KFL1 141231Z 03006KT M05/M12 A3026 RMK A01 T10531123  RH  058%=      5-min Rain = 0
KFL1 141232Z 04006KT M05/M12 A3026 RMK A01 T10521122  RH  058%=      5-min Rain = 0
KFL1 141233Z 03005KT M05/M12 A3026 RMK A01 T10451119  RH  056%=      5-min Rain = 0
KFL1 141234Z 03006KT M05/M12 A3026 RMK A01 T10481124  RH  055%=      5-min Rain = 0
KFL1 141235Z 03006KT M05/M13 A3026 RMK A01 T10531125  RH  057%=      5-min Rain = 0
KFL1 141236Z 03006KT M06/M13 A3026 RMK A01 T10571126  RH  058%=      5-min Rain = 0
KFL1 141237Z 02005KT M06/M13 A3026 RMK A01 T10591125  RH  059%=      5-min Rain = 0
KFL1 141238Z 01005KT M06/M13 A3026 RMK A01 T10641128  RH  061%=      5-min Rain = 0
KFL1 141239Z 02005KT M07/M13 A3026 RMK A01 T10651126  RH  062%=      5-min Rain = 0
KFL1 141240Z 04005KT M07/M13 A3026 RMK A01 T10651125  RH  062%=      5-min Rain = 0
KFL1 141241Z 04005KT M07/M13 A3026 RMK A01 T10651125  RH  063%=      5-min Rain = 0
KFL1 141242Z 03005KT M07/M12 A3026 RMK A01 T10651124  RH  063%=      5-min Rain = 0
KFL1 141243Z 02005KT M07/M12 A3026 RMK A01 T10651123  RH  063%=      5-min Rain = 0
KFL1 141244Z 03005KT M06/M12 A3026 RMK A01 T10641122  RH  063%=      5-min Rain = 0
KFL1 141245Z 04004KT M06/M12 A3027 RMK A01 T10631122  RH  063%=      5-min Rain = 0
KFL1 141246Z 03006KT M07/M12 A3027 RMK A01 T10651123  RH  063%=      5-min Rain = 0
KFL1 141247Z 03006KT M07/M12 A3027 RMK A01 T10661124  RH  063%=      5-min Rain = 0
KFL1 141248Z 02006KT M07/M12 A3027 RMK A01 T10651123  RH  064%=      5-min Rain = 0
KFL1 141249Z 03005KT M07/M12 A3027 RMK A01 T10661123  RH  064%=      5-min Rain = 0
KFL1 141250Z 04006KT M07/M12 A3027 RMK A01 T10671123  RH  064%=      5-min Rain = 0
KFL1 141251Z 04005KT M07/M12 A3027 RMK A01 T10651121  RH  064%=      5-min Rain = 0
KFL1 141252Z 03005KT M06/M12 A3027 RMK A01 T10611119  RH  064%=      5-min Rain = 0
KFL1 141253Z 03006KT M06/M12 A3027 RMK A01 T10601120  RH  063%=      5-min Rain = 0
KFL1 141254Z 03006KT M06/M12 A3027 RMK A01 T10641123  RH  063%=      5-min Rain = 0
KFL1 141255Z 03005KT M07/M12 A3027 RMK A01 T10661124  RH  064%=      5-min Rain = 0
KFL1 141256Z 02005KT M07/M12 A3027 RMK A01 T10661123  RH  064%=      5-min Rain = 0
KFL1 141257Z 02005KT M07/M12 A3027 RMK A01 T10651122  RH  064%=      5-min Rain = 0
KFL1 141258Z 02005KT M07/M12 A3027 RMK A01 T10651123  RH  063%=      5-min Rain = 0
KFL1 141259Z 02005KT M07/M12 A3027 RMK A01 T10671124  RH  063%=      5-min Rain = 0
KFL1 141300Z 02006KT M07/M12 A3027 RMK A01 T10661124  RH  063%=      5-min Rain = 0
KFL1 141301Z 02006KT M06/M12 A3027 RMK A01 T10611122  RH  062%=      5-min Rain = 0
KFL1 141302Z 01005KT M06/M12 A3027 RMK A01 T10601122  RH  061%=      5-min Rain = 0
KFL1 141303Z 01005KT M06/M13 A3027 RMK A01 T10621125  RH  061%=      5-min Rain = 0
KFL1 141304Z 02006KT M06/M13 A3027 RMK A01 T10611125  RH  061%=      5-min Rain = 0
KFL1 141305Z 02006KT M06/M13 A3027 RMK A01 T10601126  RH  060%=      5-min Rain = 0
KFL1 141306Z 03007KT M06/M13 A3027 RMK A01 T10581125  RH  059%=      5-min Rain = 0
KFL1 141307Z 03006KT M06/M13 A3027 RMK A01 T10581125  RH  059%=      5-min Rain = 0
KFL1 141308Z 03007KT M06/M12 A3027 RMK A01 T10581123  RH  060%=      5-min Rain = 0
KFL1 141309Z 04006KT M05/M12 A3027 RMK A01 T10541121  RH  059%=      5-min Rain = 0
KFL1 141310Z 04006KT M04/M12 A3027 RMK A01 T10441117  RH  057%=      5-min Rain = 0
KFL1 141311Z 03007KT M03/M12 A3027 RMK A01 T10341116  RH  053%=      5-min Rain = 0
KFL1 141312Z 03007KT M02/M12 A3027 RMK A01 T10241116  RH  049%=      5-min Rain = 0
KFL1 141313Z 03006KT M02/M12 A3027 RMK A01 T10211118  RH  048%=      5-min Rain = 0
KFL1 141314Z 03006KT M02/M12 A3027 RMK A01 T10221119  RH  047%=      5-min Rain = 0
KFL1 141315Z 04008KT M02/M12 A3027 RMK A01 T10241122  RH  047%=      5-min Rain = 0
KFL1 141316Z 04007KT M02/M12 A3027 RMK A01 T10241122  RH  047%=      5-min Rain = 0
KFL1 141317Z 04007KT M02/M12 A3027 RMK A01 T10191121  RH  046%=      5-min Rain = 0
KFL1 141318Z 05007KT M01/M12 A3027 RMK A01 T10141120  RH  044%=      5-min Rain = 0
KFL1 141319Z 04006KT M01/M12 A3027 RMK A01 T10111121  RH  043%=      5-min Rain = 0
KFL1 141320Z 05007KT M01/M12 A3027 RMK A01 T10111123  RH  042%=      5-min Rain = 0
KFL1 141321Z 04008KT M01/M13 A3027 RMK A01 T10121125  RH  042%=      5-min Rain = 0
KFL1 141322Z 02008KT M01/M13 A3027 RMK A01 T10141127  RH  042%=      5-min Rain = 0
KFL1 141323Z 02008KT M01/M13 A3027 RMK A01 T10131126  RH  042%=      5-min Rain = 0
KFL1 141324Z 03009KT M02/M13 A3027 RMK A01 T10201129  RH  043%=      5-min Rain = 0
KFL1 141325Z 03009KT M03/M13 A3027 RMK A01 T10251129  RH  045%=      5-min Rain = 0
KFL1 141326Z 03009KT M03/M13 A3027 RMK A01 T10291128  RH  047%=      5-min Rain = 0
KFL1 141327Z 03009KT M03/M13 A3027 RMK A01 T10301126  RH  047%=      5-min Rain = 0
KFL1 141328Z 03007KT M03/M12 A3027 RMK A01 T10261123  RH  047%=      5-min Rain = 0
KFL1 141329Z 03007KT M02/M12 A3027 RMK A01 T10241124  RH  046%=      5-min Rain = 0
KFL1 141330Z 04007KT M02/M12 A3027 RMK A01 T10221123  RH  046%=      5-min Rain = 0
KFL1 141331Z 04007KT M02/M12 A3027 RMK A01 T10191123  RH  045%=      5-min Rain = 0
KFL1 141332Z 03007KT M02/M12 A3027 RMK A01 T10171124  RH  044%=      5-min Rain = 0
KFL1 141333Z 03009KT M02/M13 A3027 RMK A01 T10161125  RH  043%=      5-min Rain = 0
KFL1 141334Z 02010KT M02/M13 A3028 RMK A01 T10211127  RH  044%=      5-min Rain = 0
KFL1 141335Z 03009KT M03/M13 A3028 RMK A01 T10271129  RH  046%=      5-min Rain = 0
KFL1 141336Z 04008KT M03/M13 A3028 RMK A01 T10311128  RH  047%=      5-min Rain = 0
KFL1 141337Z 04007KT M03/M13 A3028 RMK A01 T10331129  RH  047%=      5-min Rain = 0
KFL1 141338Z 04007KT M03/M13 A3028 RMK A01 T10281126  RH  047%=      5-min Rain = 0
KFL1 141339Z 04006KT M02/M12 A3028 RMK A01 T10241124  RH  046%=      5-min Rain = 0
KFL1 141340Z 04006KT M02/M12 A3028 RMK A01 T10201124  RH  045%=      5-min Rain = 0
KFL1 141341Z 05007KT M02/M12 A3028 RMK A01 T10171124  RH  044%=      5-min Rain = 0
KFL1 141342Z 05007KT M01/M12 A3028 RMK A01 T10131124  RH  043%=      5-min Rain = 0
KFL1 141343Z 04007KT M01/M12 A3028 RMK A01 T10101124  RH  042%=      5-min Rain = 0
KFL1 141344Z 05007KT M01/M12 A3028 RMK A01 T10071124  RH  041%=      5-min Rain = 0
KFL1 141345Z 04007KT M00/M12 A3028 RMK A01 T10041124  RH  040%=      5-min Rain = 0
KFL1 141346Z 05006KT M00/M12 A3028 RMK A01 T10031123  RH  040%=      5-min Rain = 0
KFL1 141347Z 05008KT M00/M12 A3028 RMK A01 T10021123  RH  040%=      5-min Rain = 0
KFL1 141348Z 05007KT M00/M12 A3028 RMK A01 T10031124  RH  040%=      5-min Rain = 0
KFL1 141349Z 05007KT M00/M13 A3028 RMK A01 T10041125  RH  040%=      5-min Rain = 0
KFL1 141350Z 05008KT M00/M12 A3028 RMK A01 T10031124  RH  040%=      5-min Rain = 0
KFL1 141351Z 05008KT M00/M13 A3028 RMK A01 T10031125  RH  039%=      5-min Rain = 0
KFL1 141352Z 05008KT M00/M13 A3028 RMK A01 T10031125  RH  039%=      5-min Rain = 0
KFL1 141353Z 05008KT M00/M12 A3029 RMK A01 T10021124  RH  039%=      5-min Rain = 0
KFL1 141354Z 05008KT M00/M12 A3029 RMK A01 T10011123  RH  039%=      5-min Rain = 0
KFL1 141355Z 04008KT M00/M13 A3029 RMK A01 T10011125  RH  039%=      5-min Rain = 0
KFL1 141356Z 04008KT 00/12 A3029 RMK A01 T00000-124  RH  039%=      5-min Rain = 0
KFL1 141357Z 04007KT M00/M13 A3029 RMK A01 T10021126  RH  039%=      5-min Rain = 0
KFL1 141358Z 04007KT 00/12 A3029 RMK A01 T00000-124  RH  039%=      5-min Rain = 0
KFL1 141359Z 04006KT 00/13 A3029 RMK A01 T00-00-125  RH  038%=      5-min Rain = 0
KFL1 141400Z 04007KT 00/12 A3029 RMK A01 T00000-124  RH  039%=      5-min Rain = 0
KFL1 141401Z 03008KT 00/M12 A3029 RMK A01 T00011124  RH  039%=      5-min Rain = 0
KFL1 141402Z 03007KT 00/13 A3029 RMK A01 T00000-125  RH  038%=      5-min Rain = 0
KFL1 141403Z 04006KT 00/M12 A3029 RMK A01 T00031123  RH  038%=      5-min Rain = 0
KFL1 141404Z 04006KT 00/M12 A3029 RMK A01 T00021124  RH  038%=      5-min Rain = 0
KFL1 141405Z 05007KT 00/M12 A3029 RMK A01 T00021124  RH  038%=      5-min Rain = 0
KFL1 141406Z 04007KT 00/M12 A3029 RMK A01 T00031123  RH  038%=      5-min Rain = 0
KFL1 141407Z 04007KT 01/M12 A3029 RMK A01 T00051121  RH  038%=      5-min Rain = 0
KFL1 141408Z 04007KT 00/M12 A3029 RMK A01 T00041122  RH  038%=      5-min Rain = 0
KFL1 141409Z 04006KT 01/M12 A3029 RMK A01 T00051122  RH  038%=      5-min Rain = 0
KFL1 141410Z 04007KT 00/M12 A3029 RMK A01 T00041123  RH  038%=      5-min Rain = 0
KFL1 141411Z 05006KT 01/M12 A3029 RMK A01 T00061121  RH  038%=      5-min Rain = 0
KFL1 141412Z 05006KT 01/M12 A3029 RMK A01 T00081120  RH  038%=      5-min Rain = 0
KFL1 141413Z 05005KT 01/M12 A3029 RMK A01 T00091119  RH  038%=      5-min Rain = 0
KFL1 141414Z 05006KT 01/M12 A3029 RMK A01 T00091119  RH  038%=      5-min Rain = 0
KFL1 141415Z 04006KT 01/M12 A3029 RMK A01 T00071121  RH  038%=      5-min Rain = 0
KFL1 141416Z 04006KT 01/M12 A3029 RMK A01 T00061121  RH  038%=      5-min Rain = 0
KFL1 141417Z 04005KT 01/M12 A3029 RMK A01 T00061121  RH  038%=      5-min Rain = 0
KFL1 141418Z 04006KT 01/M12 A3029 RMK A01 T00071120  RH  038%=      5-min Rain = 0
KFL1 141419Z 04006KT 01/M12 A3029 RMK A01 T00091118  RH  038%=      5-min Rain = 0
KFL1 141420Z 04006KT 01/M12 A3029 RMK A01 T00111117  RH  038%=      5-min Rain = 0
KFL1 141421Z 05005KT 01/M12 A3029 RMK A01 T00121117  RH  038%=      5-min Rain = 0
KFL1 141422Z 06004KT 01/M12 A3029 RMK A01 T00121118  RH  037%=      5-min Rain = 0
KFL1 141423Z 05004KT 01/M12 A3029 RMK A01 T00141116  RH  037%=      5-min Rain = 0
KFL1 141424Z 04005KT 01/M12 A3029 RMK A01 T00131117  RH  037%=      5-min Rain = 0
KFL1 141425Z 04006KT 01/M12 A3029 RMK A01 T00131117  RH  037%=      5-min Rain = 0
KFL1 141426Z 04006KT 01/M12 A3029 RMK A01 T00131116  RH  038%=      5-min Rain = 0
KFL1 141427Z 05006KT 01/M12 A3029 RMK A01 T00141116  RH  038%=      5-min Rain = 0
KFL1 141428Z 05005KT 01/M12 A303 RMK A01 T00141116  RH  037%=      5-min Rain = 0
KFL1 141429Z 04005KT 02/M12 A303 RMK A01 T00161116  RH  037%=      5-min Rain = 0
KFL1 141430Z 03005KT 02/M12 A303 RMK A01 T00171116  RH  036%=      5-min Rain = 0
KFL1 141431Z 03005KT 02/M12 A303 RMK A01 T00171117  RH  036%=      5-min Rain = 0
KFL1 141432Z 04005KT 02/M12 A303 RMK A01 T00161116  RH  037%=      5-min Rain = 0
KFL1 141433Z 04005KT 01/M12 A303 RMK A01 T00121116  RH  038%=      5-min Rain = 0
KFL1 141434Z 04004KT 01/M11 A303 RMK A01 T00131114  RH  038%=      5-min Rain = 0
KFL1 141435Z 05005KT 01/M11 A303 RMK A01 T00141114  RH  038%=      5-min Rain = 0
KFL1 141436Z 06005KT 02/M11 A303 RMK A01 T00161113  RH  038%=      5-min Rain = 0
KFL1 141437Z 05005KT 02/M11 A303 RMK A01 T00201111  RH  037%=      5-min Rain = 0
KFL1 141438Z 05005KT 02/M11 A303 RMK A01 T00221111  RH  036%=      5-min Rain = 0
KFL1 141439Z 06004KT 02/M11 A303 RMK A01 T00241112  RH  036%=      5-min Rain = 0
KFL1 141440Z 05004KT 03/M11 A303 RMK A01 T00261111  RH  036%=      5-min Rain = 0
KFL1 141441Z 05005KT 03/M11 A303 RMK A01 T00271110  RH  036%=      5-min Rain = 0
KFL1 141442Z 04005KT 03/M11 A303 RMK A01 T00271111  RH  036%=      5-min Rain = 0
KFL1 141443Z 04005KT 03/M11 A303 RMK A01 T00281111  RH  035%=      5-min Rain = 0
KFL1 141444Z 04005KT 03/M11 A303 RMK A01 T00281111  RH  035%=      5-min Rain = 0
KFL1 141445Z 05004KT 03/M11 A303 RMK A01 T00311110  RH  035%=      5-min Rain = 0
KFL1 141446Z 04006KT 03/M11 A303 RMK A01 T00311110  RH  035%=      5-min Rain = 0
KFL1 141447Z 05006KT 03/M11 A303 RMK A01 T00331109  RH  034%=      5-min Rain = 0
KFL1 141448Z 05005KT 04/M11 A303 RMK A01 T00351107  RH  035%=      5-min Rain = 0
KFL1 141449Z 05005KT 03/M11 A303 RMK A01 T00331109  RH  035%=      5-min Rain = 0
KFL1 141450Z 05006KT 03/M11 A303 RMK A01 T00331109  RH  034%=      5-min Rain = 0
KFL1 141451Z 05005KT 03/M11 A3031 RMK A01 T00321111  RH  034%=      5-min Rain = 0
KFL1 141452Z 05005KT 03/M11 A3031 RMK A01 T00331110  RH  034%=      5-min Rain = 0
KFL1 141453Z 06005KT 03/M11 A3031 RMK A01 T00341109  RH  034%=      5-min Rain = 0
KFL1 141454Z 05005KT 04/M11 A3031 RMK A01 T00351109  RH  034%=      5-min Rain = 0
KFL1 141455Z 06004KT 04/M11 A3031 RMK A01 T00361109  RH  034%=      5-min Rain = 0
KFL1 141456Z 06004KT 04/M11 A3031 RMK A01 T00361110  RH  033%=      5-min Rain = 0
KFL1 141457Z 06004KT 04/M11 A3031 RMK A01 T00381108  RH  034%=      5-min Rain = 0
KFL1 141458Z 06003KT 04/M11 A3031 RMK A01 T00401107  RH  033%=      5-min Rain = 0
KFL1 141459Z 06004KT 04/M11 A3032 RMK A01 T00391111  RH  033%=      5-min Rain = 0
KFL1 141500Z 06003KT 04/M11 A3032 RMK A01 T00411108  RH  033%=      5-min Rain = 0
KFL1 141501Z 07003KT 04/M11 A3032 RMK A01 T00401108  RH  033%=      5-min Rain = 0
KFL1 141502Z 07003KT 04/M11 A3032 RMK A01 T00411109  RH  033%=      5-min Rain = 0
KFL1 141503Z 06003KT 04/M11 A3032 RMK A01 T00421106  RH  033%=      5-min Rain = 0
KFL1 141504Z 06003KT 04/M11 A3032 RMK A01 T00421107  RH  033%=      5-min Rain = 0
KFL1 141505Z 05003KT 04/M11 A3032 RMK A01 T00421109  RH  033%=      5-min Rain = 0
KFL1 141506Z 07003KT 04/M11 A3032 RMK A01 T00421109  RH  032%=      5-min Rain = 0
KFL1 141507Z 06004KT 04/M11 A3032 RMK A01 T00441107  RH  032%=      5-min Rain = 0
KFL1 141508Z 07004KT 04/M11 A3032 RMK A01 T00441109  RH  032%=      5-min Rain = 0
KFL1 141509Z 07003KT 05/M11 A3032 RMK A01 T00461108  RH  032%=      5-min Rain = 0
KFL1 141510Z 07003KT 05/M11 A3032 RMK A01 T00471108  RH  032%=      5-min Rain = 0
KFL1 141511Z 07002KT 05/M11 A3032 RMK A01 T00491106  RH  031%=      5-min Rain = 0
KFL1 141512Z 06002KT 05/M11 A3033 RMK A01 T00501106  RH  031%=      5-min Rain = 0
KFL1 141513Z 06003KT 05/M10 A3033 RMK A01 T00531103  RH  032%=      5-min Rain = 0
KFL1 141514Z 07002KT 05/M11 A3033 RMK A01 T00531105  RH  031%=      5-min Rain = 0
KFL1 141515Z 07002KT 05/M11 A3033 RMK A01 T00521107  RH  031%=      5-min Rain = 0
KFL1 141516Z 07003KT 05/M11 A3033 RMK A01 T00541105  RH  031%=      5-min Rain = 0
KFL1 141517Z 07002KT 05/M11 A3033 RMK A01 T00531108  RH  030%=      5-min Rain = 0
KFL1 141518Z 07003KT 05/M11 A3033 RMK A01 T00541106  RH  030%=      5-min Rain = 0
KFL1 141519Z 07003KT 06/M11 A3033 RMK A01 T00561106  RH  030%=      5-min Rain = 0
KFL1 141520Z 07003KT 06/M11 A3033 RMK A01 T00561108  RH  030%=      5-min Rain = 0
KFL1 141521Z 09003KT 06/M11 A3033 RMK A01 T00571105  RH  030%=      5-min Rain = 0
KFL1 141522Z 07001KT 06/M11 A3033 RMK A01 T00571106  RH  030%=      5-min Rain = 0
KFL1 141523Z 07002KT 06/M11 A3033 RMK A01 T00561107  RH  030%=      5-min Rain = 0
KFL1 141524Z 07002KT 06/M11 A3033 RMK A01 T00571105  RH  030%=      5-min Rain = 0
KFL1 141525Z 09001KT 06/M10 A3033 RMK A01 T00581103  RH  030%=      5-min Rain = 0
KFL1 141526Z 11002KT 06/M11 A3033 RMK A01 T00601105  RH  030%=      5-min Rain = 0
KFL1 141527Z 08003KT 06/M11 A3033 RMK A01 T00581106  RH  030%=      5-min Rain = 0
KFL1 141528Z 09002KT 06/M11 A3033 RMK A01 T00591105  RH  030%=      5-min Rain = 0
KFL1 141529Z 08002KT 06/M10 A3033 RMK A01 T00611103  RH  030%=      5-min Rain = 0
KFL1 141530Z 07002KT 06/M10 A3033 RMK A01 T00631102  RH  030%=      5-min Rain = 0
KFL1 141531Z 09002KT 07/M10 A3033 RMK A01 T00651102  RH  029%=      5-min Rain = 0
KFL1 141532Z 09003KT 07/M10 A3033 RMK A01 T00671103  RH  028%=      5-min Rain = 0
KFL1 141533Z 10003KT 07/M10 A3033 RMK A01 T00671103  RH  029%=      5-min Rain = 0
KFL1 141534Z 08002KT 07/M10 A3033 RMK A01 T00681103  RH  028%=      5-min Rain = 0
KFL1 141535Z 05002KT 07/M10 A3033 RMK A01 T00701099  RH  029%=      5-min Rain = 0
KFL1 141536Z 06003KT 07/M10 A3033 RMK A01 T00691102  RH  028%=      5-min Rain = 0
KFL1 141537Z 06003KT 07/M10 A3033 RMK A01 T00711101  RH  028%=      5-min Rain = 0
KFL1 141538Z 06004KT 07/M10 A3033 RMK A01 T00691102  RH  028%=      5-min Rain = 0
KFL1 141539Z 05002KT 07/M10 A3033 RMK A01 T00681104  RH  028%=      5-min Rain = 0
KFL1 141540Z 07002KT 07/M10 A3033 RMK A01 T00681104  RH  028%=      5-min Rain = 0
KFL1 141541Z 08003KT 07/M10 A3033 RMK A01 T00681102  RH  029%=      5-min Rain = 0
KFL1 141542Z 08003KT 07/M10 A3033 RMK A01 T00691100  RH  029%=      5-min Rain = 0
KFL1 141543Z 09003KT 07/M10 A3033 RMK A01 T00691102  RH  028%=      5-min Rain = 0
KFL1 141544Z 04003KT 07/M10 A3033 RMK A01 T00711102  RH  028%=      5-min Rain = 0
KFL1 141545Z 04003KT 07/M10 A3033 RMK A01 T00701104  RH  028%=      5-min Rain = 0
KFL1 141546Z 02002KT 07/M10 A3034 RMK A01 T00721101  RH  028%=      5-min Rain = 0
KFL1 141547Z 04002KT 07/M10 A3034 RMK A01 T00701102  RH  028%=      5-min Rain = 0
KFL1 141548Z 04002KT 07/M10 A3034 RMK A01 T00711102  RH  028%=      5-min Rain = 0
KFL1 141549Z 06002KT 07/M10 A3034 RMK A01 T00721102  RH  028%=      5-min Rain = 0
KFL1 141550Z 06001KT 07/M10 A3034 RMK A01 T00731101  RH  028%=      5-min Rain = 0
KFL1 141551Z 08001KT 07/M10 A3034 RMK A01 T00741101  RH  028%=      5-min Rain = 0
KFL1 141552Z 07001KT 08/M10 A3034 RMK A01 T00761099  RH  028%=      5-min Rain = 0
KFL1 141553Z 13000KT 08/M10 A3034 RMK A01 T00761103  RH  027%=      5-min Rain = 0
KFL1 141554Z 10001KT 08/M11 A3034 RMK A01 T00751105  RH  027%=      5-min Rain = 0
KFL1 141555Z 10002KT 08/M10 A3034 RMK A01 T00761102  RH  027%=      5-min Rain = 0
KFL1 141556Z 13001KT 08/M10 A3034 RMK A01 T00761101  RH  027%=      5-min Rain = 0
KFL1 141557Z 10001KT 08/M10 A3034 RMK A01 T00771103  RH  027%=      5-min Rain = 0
KFL1 141558Z 09002KT 08/M10 A3034 RMK A01 T00751104  RH  027%=      5-min Rain = 0
KFL1 141559Z 10002KT 08/M10 A3034 RMK A01 T00761102  RH  027%=      5-min Rain = 0
KFL1 141600Z 13003KT 08/M10 A3034 RMK A01 T00801101  RH  027%=      5-min Rain = 0
KFL1 141601Z 12002KT 08/M10 A3034 RMK A01 T00791102  RH  026%=      5-min Rain = 0
KFL1 141602Z 12002KT 08/M10 A3034 RMK A01 T00811101  RH  026%=      5-min Rain = 0
KFL1 141603Z 12001KT 08/M10 A3034 RMK A01 T00821101  RH  026%=      5-min Rain = 0
KFL1 141604Z 13001KT 08/M10 A3034 RMK A01 T00841100  RH  026%=      5-min Rain = 0
KFL1 141605Z 13001KT 08/M10 A3034 RMK A01 T00811104  RH  026%=      5-min Rain = 0
KFL1 141606Z 12003KT 08/M10 A3034 RMK A01 T00821102  RH  026%=      5-min Rain = 0
KFL1 141607Z 12003KT 08/M10 A3035 RMK A01 T00831099  RH  026%=      5-min Rain = 0
KFL1 141608Z 12003KT 09/M10 A3035 RMK A01 T00851103  RH  025%=      5-min Rain = 0
KFL1 141609Z 13002KT 08/M11 A3035 RMK A01 T00821106  RH  025%=      5-min Rain = 0
KFL1 141610Z 11001KT 08/M11 A3035 RMK A01 T00811105  RH  026%=      5-min Rain = 0
KFL1 141611Z 02001KT 08/M11 A3035 RMK A01 T00791107  RH  026%=      5-min Rain = 0
KFL1 141612Z 02001KT 08/M11 A3035 RMK A01 T00791105  RH  026%=      5-min Rain = 0
KFL1 141613Z 01001KT 08/M10 A3035 RMK A01 T00771104  RH  026%=      5-min Rain = 0
KFL1 141614Z 02001KT 08/M10 A3035 RMK A01 T00811099  RH  027%=      5-min Rain = 0
KFL1 141615Z 15001KT 09/M10 A3035 RMK A01 T00861098  RH  026%=      5-min Rain = 0
KFL1 141616Z 18002KT 09/M10 A3035 RMK A01 T00891100  RH  025%=      5-min Rain = 0
KFL1 141617Z 17001KT 09/M11 A3035 RMK A01 T00871105  RH  024%=      5-min Rain = 0
KFL1 141618Z 24001KT 09/M11 A3035 RMK A01 T00871107  RH  024%=      5-min Rain = 0
KFL1 141619Z 15002KT 09/M11 A3035 RMK A01 T00851105  RH  025%=      5-min Rain = 0
KFL1 141620Z 17002KT 08/M11 A3035 RMK A01 T00831106  RH  025%=      5-min Rain = 0
KFL1 141621Z 17004KT 09/M10 A3035 RMK A01 T00861102  RH  025%=      5-min Rain = 0
KFL1 141622Z 16002KT 09/M10 A3035 RMK A01 T00881102  RH  025%=      5-min Rain = 0
KFL1 141623Z 17001KT 09/M10 A3035 RMK A01 T00871103  RH  025%=      5-min Rain = 0
KFL1 141624Z 16000KT 08/M11 A3035 RMK A01 T00841105  RH  025%=      5-min Rain = 0
KFL1 141625Z 17002KT 08/M11 A3035 RMK A01 T00811105  RH  026%=      5-min Rain = 0
KFL1 141626Z 18002KT 08/M10 A3035 RMK A01 T00831104  RH  025%=      5-min Rain = 0
KFL1 141627Z 15003KT 09/M10 A3035 RMK A01 T00851103  RH  025%=      5-min Rain = 0
KFL1 141628Z 14004KT 09/M10 A3035 RMK A01 T00881101  RH  025%=      5-min Rain = 0
KFL1 141629Z 16004KT 09/M10 A3035 RMK A01 T00891102  RH  025%=      5-min Rain = 0
KFL1 141630Z 18003KT 09/M10 A3035 RMK A01 T00891104  RH  025%=      5-min Rain = 0
KFL1 141631Z 20002KT 09/M10 A3035 RMK A01 T00911104  RH  024%=      5-min Rain = 0
KFL1 141632Z 18002KT 09/M11 A3035 RMK A01 T00891106  RH  024%=      5-min Rain = 0
KFL1 141633Z 19001KT 09/M11 A3035 RMK A01 T00901106  RH  024%=      5-min Rain = 0
KFL1 141634Z 28000KT 09/M10 A3035 RMK A01 T00901104  RH  024%=      5-min Rain = 0
KFL1 141635Z 16003KT 09/M11 A3035 RMK A01 T00871105  RH  025%=      5-min Rain = 0
KFL1 141636Z 15004KT 09/M10 A3035 RMK A01 T00901101  RH  025%=      5-min Rain = 0
KFL1 141637Z 18005KT 09/M10 A3035 RMK A01 T00921102  RH  024%=      5-min Rain = 0
KFL1 141638Z 19005KT 09/M10 A3035 RMK A01 T00941102  RH  024%=      5-min Rain = 0
KFL1 141639Z 17004KT 09/M10 A3035 RMK A01 T00941104  RH  024%=      5-min Rain = 0
KFL1 141640Z 16003KT 10/M10 A3035 RMK A01 T00961101  RH  024%=      5-min Rain = 0
KFL1 141641Z 17004KT 10/M10 A3035 RMK A01 T00971101  RH  024%=      5-min Rain = 0
KFL1 141642Z 15003KT 10/M10 A3036 RMK A01 T00971102  RH  023%=      5-min Rain = 0
KFL1 141643Z 14003KT 10/M10 A3036 RMK A01 T00961102  RH  024%=      5-min Rain = 0
KFL1 141644Z 13002KT 10/M10 A3036 RMK A01 T00961104  RH  023%=      5-min Rain = 0
KFL1 141645Z 15003KT 10/M10 A3036 RMK A01 T00971103  RH  023%=      5-min Rain = 0
KFL1 141646Z 14003KT 10/M11 A3036 RMK A01 T00951105  RH  023%=      5-min Rain = 0
KFL1 141647Z 14002KT 09/M11 A3036 RMK A01 T00941105  RH  023%=      5-min Rain = 0
KFL1 141648Z 12001KT 09/M11 A3036 RMK A01 T00901107  RH  024%=      5-min Rain = 0
KFL1 141649Z 17001KT 09/M11 A3036 RMK A01 T00901106  RH  024%=      5-min Rain = 0
KFL1 141650Z 16003KT 09/M10 A3036 RMK A01 T00921102  RH  024%=      5-min Rain = 0
KFL1 141651Z 19003KT 10/M10 A3036 RMK A01 T00971098  RH  024%=      5-min Rain = 0
KFL1 141652Z 21004KT 10/M10 A3036 RMK A01 T01011098  RH  024%=      5-min Rain = 0
KFL1 141653Z 18005KT 10/M10 A3036 RMK A01 T01011100  RH  023%=      5-min Rain = 0
KFL1 141654Z 14002KT 10/M10 A3036 RMK A01 T01021099  RH  023%=      5-min Rain = 0
KFL1 141655Z 15003KT 10/M10 A3036 RMK A01 T01041100  RH  023%=      5-min Rain = 0
KFL1 141656Z 16002KT 11/M10 A3036 RMK A01 T01061098  RH  023%=      5-min Rain = 0
KFL1 141657Z 19002KT 10/M10 A3036 RMK A01 T01031101  RH  023%=      5-min Rain = 0
KFL1 141658Z 22002KT 10/M10 A3036 RMK A01 T01011102  RH  023%=      5-min Rain = 0
KFL1 141659Z 15001KT 10/M10 A3036 RMK A01 T01011101  RH  023%=      5-min Rain = 0
KFL1 141700Z 15003KT 10/M10 A3036 RMK A01 T01001101  RH  023%=      5-min Rain = 0
KFL1 141701Z 15002KT 10/M10 A3036 RMK A01 T01021100  RH  023%=      5-min Rain = 0
KFL1 141702Z 14002KT 11/M10 A3036 RMK A01 T01051099  RH  023%=      5-min Rain = 0
KFL1 141703Z 14001KT 11/M10 A3036 RMK A01 T01051101  RH  022%=      5-min Rain = 0
KFL1 141704Z 12003KT 11/M10 A3036 RMK A01 T01051103  RH  022%=      5-min Rain = 0
KFL1 141705Z 14004KT 10/M10 A3036 RMK A01 T01031101  RH  023%=      5-min Rain = 0
KFL1 141706Z 15004KT 10/M10 A3036 RMK A01 T01031101  RH  023%=      5-min Rain = 0
KFL1 141707Z 16005KT 10/M10 A3036 RMK A01 T01011103  RH  023%=      5-min Rain = 0
KFL1 141708Z 16002KT 10/M10 A3036 RMK A01 T00991103  RH  023%=      5-min Rain = 0
KFL1 141709Z 15001KT 10/M10 A3036 RMK A01 T00981102  RH  023%=      5-min Rain = 0
KFL1 141710Z 16004KT 10/M10 A3036 RMK A01 T00991102  RH  023%=      5-min Rain = 0
KFL1 141711Z 19005KT 10/M10 A3036 RMK A01 T01011101  RH  023%=      5-min Rain = 0
KFL1 141712Z 18003KT 10/M10 A3036 RMK A01 T01011101  RH  023%=      5-min Rain = 0
KFL1 141713Z 18004KT 10/M10 A3036 RMK A01 T01001102  RH  023%=      5-min Rain = 0
KFL1 141714Z 18004KT 10/M10 A3036 RMK A01 T01011103  RH  023%=      5-min Rain = 0
KFL1 141715Z 18002KT 10/M10 A3036 RMK A01 T01011104  RH  023%=      5-min Rain = 0
KFL1 141716Z 12003KT 10/M10 A3036 RMK A01 T01021101  RH  023%=      5-min Rain = 0
KFL1 141717Z 14003KT 10/M10 A3036 RMK A01 T01021103  RH  023%=      5-min Rain = 0
KFL1 141718Z 13002KT 10/M10 A3036 RMK A01 T01001103  RH  023%=      5-min Rain = 0
KFL1 141719Z 10002KT 10/M10 A3036 RMK A01 T01001102  RH  023%=      5-min Rain = 0
KFL1 141720Z 12003KT 10/M10 A3036 RMK A01 T00991100  RH  023%=      5-min Rain = 0
KFL1 141721Z 15004KT 10/M10 A3036 RMK A01 T01011098  RH  024%=      5-min Rain = 0
KFL1 141722Z 13003KT 10/M10 A3036 RMK A01 T01031098  RH  023%=      5-min Rain = 0
KFL1 141723Z 13000KT 10/M10 A3036 RMK A01 T01031100  RH  023%=      5-min Rain = 0
KFL1 141724Z 01000KT 10/M10 A3036 RMK A01 T01031099  RH  023%=      5-min Rain = 0
KFL1 141725Z 15003KT 10/M10 A3036 RMK A01 T01021101  RH  023%=      5-min Rain = 0
KFL1 141726Z 15004KT 11/M10 A3036 RMK A01 T01051101  RH  023%=      5-min Rain = 0
KFL1 141727Z 16004KT 11/M10 A3036 RMK A01 T01051103  RH  022%=      5-min Rain = 0
KFL1 141728Z 16004KT 11/M10 A3036 RMK A01 T01061100  RH  023%=      5-min Rain = 0
KFL1 141729Z 15002KT 11/M10 A3036 RMK A01 T01091100  RH  022%=      5-min Rain = 0
KFL1 141730Z 14002KT 11/M10 A3036 RMK A01 T01121101  RH  021%=      5-min Rain = 0
KFL1 141731Z 14002KT 11/M10 A3036 RMK A01 T01131099  RH  022%=      5-min Rain = 0
KFL1 141732Z 14002KT 11/M10 A3036 RMK A01 T01121101  RH  021%=      5-min Rain = 0
KFL1 141733Z 19004KT 11/M10 A3036 RMK A01 T01101101  RH  022%=      5-min Rain = 0
KFL1 141734Z 17002KT 11/M10 A3036 RMK A01 T01101103  RH  021%=      5-min Rain = 0
KFL1 141735Z 18003KT 11/M10 A3036 RMK A01 T01101103  RH  021%=      5-min Rain = 0
KFL1 141736Z 19003KT 11/M10 A3036 RMK A01 T01091104  RH  021%=      5-min Rain = 0
KFL1 141737Z 17003KT 11/M11 A3036 RMK A01 T01071105  RH  021%=      5-min Rain = 0
KFL1 141738Z 15004KT 11/M10 A3036 RMK A01 T01071102  RH  022%=      5-min Rain = 0
KFL1 141739Z 16003KT 11/M10 A3036 RMK A01 T01081102  RH  022%=      5-min Rain = 0
KFL1 141740Z 15002KT 11/M10 A3036 RMK A01 T01071104  RH  022%=      5-min Rain = 0
KFL1 141741Z 15003KT 11/M10 A3036 RMK A01 T01071104  RH  022%=      5-min Rain = 0
KFL1 141742Z 15002KT 11/M11 A3036 RMK A01 T01061105  RH  022%=      5-min Rain = 0
KFL1 141743Z 13001KT 10/M11 A3036 RMK A01 T01021105  RH  022%=      5-min Rain = 0
KFL1 141744Z 17001KT 10/M10 A3036 RMK A01 T01021103  RH  022%=      5-min Rain = 0
KFL1 141745Z 15003KT 11/M10 A3036 RMK A01 T01081097  RH  023%=      5-min Rain = 0
KFL1 141746Z 16003KT 11/M10 A3036 RMK A01 T01111095  RH  022%=      5-min Rain = 0
KFL1 141747Z 15005KT 11/M10 A3036 RMK A01 T01141097  RH  022%=      5-min Rain = 0
KFL1 141748Z 15005KT 11/M10 A3036 RMK A01 T01141098  RH  022%=      5-min Rain = 0
KFL1 141749Z 14007KT 12/M10 A3036 RMK A01 T01151095  RH  022%=      5-min Rain = 0
KFL1 141750Z 14008KT 12/M09 A3036 RMK A01 T01151093  RH  022%=      5-min Rain = 0
KFL1 141751Z 12006KT 11/M10 A3036 RMK A01 T01131096  RH  022%=      5-min Rain = 0
KFL1 141752Z 10005KT 11/M09 A3036 RMK A01 T01131093  RH  023%=      5-min Rain = 0
KFL1 141753Z 15005KT 12/M09 A3036 RMK A01 T01151094  RH  022%=      5-min Rain = 0
KFL1 141754Z 14004KT 11/M10 A3036 RMK A01 T01111099  RH  022%=      5-min Rain = 0
KFL1 141755Z 13005KT 11/M10 A3036 RMK A01 T01101097  RH  022%=      5-min Rain = 0
KFL1 141756Z 13006KT 11/M10 A3036 RMK A01 T01081098  RH  022%=      5-min Rain = 0
KFL1 141757Z 13004KT 11/M10 A3036 RMK A01 T01061098  RH  023%=      5-min Rain = 0
KFL1 141758Z 12004KT 11/M10 A3036 RMK A01 T01051099  RH  023%=      5-min Rain = 0
KFL1 141759Z 10004KT 10/M10 A3036 RMK A01 T01041097  RH  023%=      5-min Rain = 0
KFL1 141800Z 10005KT 11/M09 A3036 RMK A01 T01051094  RH  024%=      5-min Rain = 0
KFL1 141801Z 09006KT 11/M10 A3036 RMK A01 T01071095  RH  023%=      5-min Rain = 0
KFL1 141802Z 12005KT 11/M09 A3036 RMK A01 T01091093  RH  023%=      5-min Rain = 0
KFL1 141803Z 12006KT 11/M10 A3036 RMK A01 T01071098  RH  023%=      5-min Rain = 0
KFL1 141804Z 12006KT 10/M10 A3036 RMK A01 T01041096  RH  023%=      5-min Rain = 0
KFL1 141805Z 09005KT 11/M09 A3036 RMK A01 T01101089  RH  024%=      5-min Rain = 0
KFL1 141806Z 10004KT 11/M09 A3036 RMK A01 T01111092  RH  023%=      5-min Rain = 0
KFL1 141807Z 11005KT 11/M09 A3036 RMK A01 T01101092  RH  023%=      5-min Rain = 0
KFL1 141808Z 11006KT 11/M09 A3036 RMK A01 T01141091  RH  023%=      5-min Rain = 0
KFL1 141809Z 14006KT 11/M09 A3036 RMK A01 T01141094  RH  022%=      5-min Rain = 0
KFL1 141810Z 13005KT 11/M09 A3036 RMK A01 T01131094  RH  022%=      5-min Rain = 0
KFL1 141811Z 12005KT 11/M09 A3036 RMK A01 T01121094  RH  023%=      5-min Rain = 0
KFL1 141812Z 11006KT 11/M09 A3036 RMK A01 T01111094  RH  023%=      5-min Rain = 0
KFL1 141813Z 10007KT 11/M09 A3036 RMK A01 T01111093  RH  023%=      5-min Rain = 0
KFL1 141814Z 12006KT 11/M09 A3036 RMK A01 T01141091  RH  023%=      5-min Rain = 0
KFL1 141815Z 10006KT 11/M09 A3036 RMK A01 T01141094  RH  022%=      5-min Rain = 0
KFL1 141816Z 11005KT 12/M09 A3036 RMK A01 T01151092  RH  023%=      5-min Rain = 0
KFL1 141817Z 10008KT 12/M09 A3036 RMK A01 T01151092  RH  023%=      5-min Rain = 0
KFL1 141818Z 10005KT 12/M09 A3036 RMK A01 T01201087  RH  023%=      5-min Rain = 0
KFL1 141819Z 09007KT 12/M09 A3036 RMK A01 T01221089  RH  022%=      5-min Rain = 0
KFL1 141820Z 13004KT 12/M10 A3036 RMK A01 T01151096  RH  022%=      5-min Rain = 0
KFL1 141821Z 15005KT 12/M09 A3036 RMK A01 T01151093  RH  022%=      5-min Rain = 0
KFL1 141822Z 13006KT 12/M09 A3036 RMK A01 T01171090  RH  023%=      5-min Rain = 0
KFL1 141823Z 13006KT 12/M09 A3036 RMK A01 T01171092  RH  022%=      5-min Rain = 0
KFL1 141824Z 12006KT 11/M09 A3036 RMK A01 T01141093  RH  022%=      5-min Rain = 0
KFL1 141825Z 13005KT 11/M09 A3036 RMK A01 T01141093  RH  022%=      5-min Rain = 0
KFL1 141826Z 12004KT 11/M10 A3036 RMK A01 T01141096  RH  022%=      5-min Rain = 0
KFL1 141827Z 13005KT 11/M10 A3036 RMK A01 T01131095  RH  022%=      5-min Rain = 0
KFL1 141828Z 12004KT 11/M09 A3036 RMK A01 T01141092  RH  023%=      5-min Rain = 0
KFL1 141829Z 13002KT 12/M09 A3036 RMK A01 T01161093  RH  022%=      5-min Rain = 0
KFL1 141830Z 09004KT 12/M09 A3036 RMK A01 T01171094  RH  022%=      5-min Rain = 0
KFL1 141831Z 08004KT 12/M09 A3036 RMK A01 T01191092  RH  022%=      5-min Rain = 0
KFL1 141832Z 10004KT 12/M09 A3036 RMK A01 T01201091  RH  022%=      5-min Rain = 0
KFL1 141833Z 11005KT 12/M09 A3036 RMK A01 T01181094  RH  022%=      5-min Rain = 0
KFL1 141834Z 11007KT 12/M09 A3036 RMK A01 T01181093  RH  022%=      5-min Rain = 0
KFL1 141835Z 11007KT 12/M10 A3036 RMK A01 T01151096  RH  022%=      5-min Rain = 0
KFL1 141836Z 12007KT 11/M10 A3036 RMK A01 T01121099  RH  022%=      5-min Rain = 0
KFL1 141837Z 12006KT 11/M10 A3035 RMK A01 T01061101  RH  022%=      5-min Rain = 0
KFL1 141838Z 12009KT 11/M10 A3035 RMK A01 T01051098  RH  023%=      5-min Rain = 0
KFL1 141839Z 13008KT 11/M10 A3035 RMK A01 T01081096  RH  023%=      5-min Rain = 0
KFL1 141840Z 11007KT 11/M10 A3035 RMK A01 T01061098  RH  023%=      5-min Rain = 0
KFL1 141841Z 11006KT 11/M10 A3035 RMK A01 T01071097  RH  023%=      5-min Rain = 0
KFL1 141842Z 09003KT 11/M10 A3035 RMK A01 T01051100  RH  023%=      5-min Rain = 0
KFL1 141843Z 09002KT 11/M10 A3035 RMK A01 T01051100  RH  023%=      5-min Rain = 0
KFL1 141844Z 12004KT 11/M10 A3035 RMK A01 T01051099  RH  023%=      5-min Rain = 0
KFL1 141845Z 11006KT 11/M09 A3035 RMK A01 T01121091  RH  023%=      5-min Rain = 0
KFL1 141846Z 12006KT 12/M09 A3035 RMK A01 T01161093  RH  022%=      5-min Rain = 0
KFL1 141847Z 13006KT 12/M10 A3035 RMK A01 T01151096  RH  022%=      5-min Rain = 0
KFL1 141848Z 14007KT 11/M10 A3035 RMK A01 T01131097  RH  022%=      5-min Rain = 0
KFL1 141849Z 11006KT 11/M10 A3035 RMK A01 T01131096  RH  022%=      5-min Rain = 0
KFL1 141850Z 11004KT 11/M10 A3035 RMK A01 T01131099  RH  022%=      5-min Rain = 0
KFL1 141851Z 09004KT 11/M10 A3035 RMK A01 T01121096  RH  022%=      5-min Rain = 0
KFL1 141852Z 08006KT 11/M09 A3035 RMK A01 T01131094  RH  022%=      5-min Rain = 0
KFL1 141853Z 10005KT 11/M10 A3035 RMK A01 T01141096  RH  022%=      5-min Rain = 0
KFL1 141854Z 10004KT 11/M10 A3035 RMK A01 T01141098  RH  022%=      5-min Rain = 0
KFL1 141855Z 12003KT 11/M10 A3035 RMK A01 T01141097  RH  022%=      5-min Rain = 0
KFL1 141856Z 11005KT 11/M10 A3035 RMK A01 T01131097  RH  022%=      5-min Rain = 0
KFL1 141857Z 11006KT 11/M10 A3035 RMK A01 T01121095  RH  022%=      5-min Rain = 0
KFL1 141858Z 11006KT 11/M10 A3035 RMK A01 T01131097  RH  022%=      5-min Rain = 0
KFL1 141859Z 12007KT 11/M10 A3035 RMK A01 T01131095  RH  022%=      5-min Rain = 0
KFL1 141900Z 10007KT 12/M09 A3035 RMK A01 T01161094  RH  022%=      5-min Rain = 0
KFL1 141901Z 10004KT 12/M10 A3035 RMK A01 T01151096  RH  022%=      5-min Rain = 0
KFL1 141902Z 11005KT 12/M09 A3035 RMK A01 T01151091  RH  023%=      5-min Rain = 0
KFL1 141903Z 14003KT 12/M09 A3035 RMK A01 T01171093  RH  022%=      5-min Rain = 0
KFL1 141904Z 16003KT 12/M09 A3035 RMK A01 T01201093  RH  022%=      5-min Rain = 0
KFL1 141905Z 12003KT 12/M10 A3035 RMK A01 T01201095  RH  021%=      5-min Rain = 0
KFL1 141906Z 11003KT 12/M10 A3035 RMK A01 T01191096  RH  021%=      5-min Rain = 0
KFL1 141907Z 09005KT 12/M10 A3035 RMK A01 T01191095  RH  022%=      5-min Rain = 0
KFL1 141908Z 12003KT 12/M10 A3035 RMK A01 T01171096  RH  022%=      5-min Rain = 0
KFL1 141909Z 14004KT 12/M09 A3035 RMK A01 T01201094  RH  021%=      5-min Rain = 0
KFL1 141910Z 16002KT 12/M10 A3035 RMK A01 T01221095  RH  021%=      5-min Rain = 0
KFL1 141911Z 17001KT 12/M10 A3035 RMK A01 T01191098  RH  021%=      5-min Rain = 0
KFL1 141912Z 13003KT 12/M10 A3035 RMK A01 T01151099  RH  021%=      5-min Rain = 0
KFL1 141913Z 11004KT 12/M09 A3034 RMK A01 T01161094  RH  022%=      5-min Rain = 0
KFL1 141914Z 13005KT 12/M09 A3034 RMK A01 T01171091  RH  022%=      5-min Rain = 0
KFL1 141915Z 12006KT 12/M09 A3034 RMK A01 T01151094  RH  022%=      5-min Rain = 0
KFL1 141916Z 13005KT 12/M10 A3034 RMK A01 T01151095  RH  022%=      5-min Rain = 0
KFL1 141917Z 12006KT 11/M10 A3034 RMK A01 T01131095  RH  022%=      5-min Rain = 0
KFL1 141918Z 12004KT 11/M09 A3034 RMK A01 T01141094  RH  022%=      5-min Rain = 0
KFL1 141919Z 12005KT 12/M09 A3034 RMK A01 T01151093  RH  022%=      5-min Rain = 0
KFL1 141920Z 12007KT 12/M09 A3034 RMK A01 T01151092  RH  023%=      5-min Rain = 0
KFL1 141921Z 13006KT 11/M10 A3034 RMK A01 T01141095  RH  022%=      5-min Rain = 0
KFL1 141922Z 13004KT 12/M09 A3034 RMK A01 T01151092  RH  023%=      5-min Rain = 0
KFL1 141923Z 12007KT 12/M09 A3034 RMK A01 T01191089  RH  023%=      5-min Rain = 0
KFL1 141924Z 11006KT 12/M09 A3034 RMK A01 T01191092  RH  022%=      5-min Rain = 0
KFL1 141925Z 09005KT 12/M10 A3034 RMK A01 T01171095  RH  022%=      5-min Rain = 0
KFL1 141926Z 10004KT 11/M09 A3034 RMK A01 T01141094  RH  022%=      5-min Rain = 0
KFL1 141927Z 15007KT 12/M09 A3034 RMK A01 T01151091  RH  023%=      5-min Rain = 0
KFL1 141928Z 15008KT 12/M09 A3034 RMK A01 T01151093  RH  022%=      5-min Rain = 0
KFL1 141929Z 15008KT 12/M09 A3034 RMK A01 T01161093  RH  022%=      5-min Rain = 0
KFL1 141930Z 17007KT 12/M09 A3034 RMK A01 T01171092  RH  022%=      5-min Rain = 0
KFL1 141931Z 18007KT 12/M09 A3034 RMK A01 T01171094  RH  022%=      5-min Rain = 0
KFL1 141932Z 16003KT 12/M09 A3034 RMK A01 T01201090  RH  022%=      5-min Rain = 0
KFL1 141933Z 11005KT 12/M09 A3034 RMK A01 T01221092  RH  022%=      5-min Rain = 0
KFL1 141934Z 10008KT 12/M09 A3034 RMK A01 T01221090  RH  022%=      5-min Rain = 0
KFL1 141935Z 09006KT 12/M09 A3034 RMK A01 T01231090  RH  022%=      5-min Rain = 0
KFL1 141936Z 08004KT 12/M09 A3034 RMK A01 T01191094  RH  022%=      5-min Rain = 0
KFL1 141937Z 09004KT 11/M10 A3034 RMK A01 T01141096  RH  022%=      5-min Rain = 0
KFL1 141938Z 09005KT 11/M09 A3034 RMK A01 T01121094  RH  023%=      5-min Rain = 0
KFL1 141939Z 10006KT 11/M10 A3034 RMK A01 T01091095  RH  023%=      5-min Rain = 0
KFL1 141940Z 10003KT 11/M09 A3034 RMK A01 T01101094  RH  023%=      5-min Rain = 0
KFL1 141941Z 08004KT 11/M09 A3034 RMK A01 T01111094  RH  023%=      5-min Rain = 0
KFL1 141942Z 07002KT 11/M09 A3034 RMK A01 T01131093  RH  023%=      5-min Rain = 0
KFL1 141943Z 11003KT 11/M09 A3034 RMK A01 T01131093  RH  023%=      5-min Rain = 0
KFL1 141944Z 13005KT 11/M09 A3034 RMK A01 T01141092  RH  023%=      5-min Rain = 0
KFL1 141945Z 13005KT 12/M09 A3034 RMK A01 T01161090  RH  023%=      5-min Rain = 0
KFL1 141946Z 13004KT 12/M09 A3034 RMK A01 T01161091  RH  023%=      5-min Rain = 0
KFL1 141947Z 12006KT 12/M09 A3034 RMK A01 T01161092  RH  022%=      5-min Rain = 0
KFL1 141948Z 09005KT 11/M09 A3034 RMK A01 T01141094  RH  022%=      5-min Rain = 0
KFL1 141949Z 09003KT 11/M09 A3034 RMK A01 T01131091  RH  023%=      5-min Rain = 0
KFL1 141950Z 06003KT 11/M09 A3034 RMK A01 T01121094  RH  023%=      5-min Rain = 0
KFL1 141951Z 11004KT 11/M09 A3034 RMK A01 T01141091  RH  023%=      5-min Rain = 0
KFL1 141952Z 11004KT 11/M09 A3034 RMK A01 T01131094  RH  022%=      5-min Rain = 0
KFL1 141953Z 11005KT 11/M09 A3034 RMK A01 T01131093  RH  023%=      5-min Rain = 0
KFL1 141954Z 12003KT 11/M09 A3034 RMK A01 T01141093  RH  023%=      5-min Rain = 0
KFL1 141955Z 11005KT 11/M09 A3034 RMK A01 T01121094  RH  023%=      5-min Rain = 0
KFL1 141956Z 12007KT 11/M09 A3034 RMK A01 T01111094  RH  023%=      5-min Rain = 0
KFL1 141957Z 13005KT 11/M09 A3034 RMK A01 T01141092  RH  023%=      5-min Rain = 0
KFL1 141958Z 14004KT 12/M09 A3034 RMK A01 T01171094  RH  022%=      5-min Rain = 0
KFL1 141959Z 14002KT 12/M09 A3034 RMK A01 T01171092  RH  022%=      5-min Rain = 0
KFL1 142000Z 16004KT 12/M10 A3034 RMK A01 T01151095  RH  022%=      5-min Rain = 0
KFL1 142001Z 16003KT 12/M10 A3034 RMK A01 T01161096  RH  022%=      5-min Rain = 0
KFL1 142002Z 19003KT 12/M10 A3034 RMK A01 T01161095  RH  022%=      5-min Rain = 0
KFL1 142003Z 14003KT 12/M09 A3034 RMK A01 T01181093  RH  022%=      5-min Rain = 0
KFL1 142004Z 15002KT 12/M09 A3034 RMK A01 T01181094  RH  022%=      5-min Rain = 0
KFL1 142005Z 13001KT 12/M10 A3034 RMK A01 T01171096  RH  022%=      5-min Rain = 0
KFL1 142006Z 08002KT 12/M09 A3034 RMK A01 T01181093  RH  022%=      5-min Rain = 0
KFL1 142007Z 08002KT 12/M09 A3034 RMK A01 T01161094  RH  022%=      5-min Rain = 0
KFL1 142008Z 10005KT 12/M09 A3034 RMK A01 T01161094  RH  022%=      5-min Rain = 0
KFL1 142009Z 12006KT 12/M09 A3034 RMK A01 T01191089  RH  022%=      5-min Rain = 0
KFL1 142010Z 14004KT 12/M09 A3034 RMK A01 T01211091  RH  022%=      5-min Rain = 0
KFL1 142011Z 12003KT 12/M09 A3034 RMK A01 T01201094  RH  021%=      5-min Rain = 0
KFL1 142012Z 09004KT 12/M09 A3034 RMK A01 T01191094  RH  022%=      5-min Rain = 0
KFL1 142013Z 13004KT 12/M09 A3034 RMK A01 T01191092  RH  022%=      5-min Rain = 0
KFL1 142014Z 15004KT 12/M09 A3034 RMK A01 T01221091  RH  022%=      5-min Rain = 0
KFL1 142015Z 16006KT 13/M09 A3034 RMK A01 T01251087  RH  022%=      5-min Rain = 0
KFL1 142016Z 15006KT 13/M09 A3034 RMK A01 T01251089  RH  022%=      5-min Rain = 0
KFL1 142017Z 16004KT 13/M09 A3034 RMK A01 T01261092  RH  021%=      5-min Rain = 0
KFL1 142018Z 15001KT 12/M10 A3034 RMK A01 T01221096  RH  021%=      5-min Rain = 0
KFL1 142019Z 16005KT 12/M09 A3034 RMK A01 T01211094  RH  021%=      5-min Rain = 0
KFL1 142020Z 13003KT 12/M10 A3034 RMK A01 T01191096  RH  021%=      5-min Rain = 0
KFL1 142021Z 15003KT 12/M10 A3034 RMK A01 T01191095  RH  022%=      5-min Rain = 0
KFL1 142022Z 14004KT 12/M09 A3034 RMK A01 T01221091  RH  022%=      5-min Rain = 0
KFL1 142023Z 15003KT 12/M09 A3033 RMK A01 T01201094  RH  021%=      5-min Rain = 0
KFL1 142024Z 12001KT 12/M09 A3033 RMK A01 T01181094  RH  022%=      5-min Rain = 0
KFL1 142025Z 16001KT 12/M09 A3033 RMK A01 T01201093  RH  022%=      5-min Rain = 0
KFL1 142026Z 21003KT 12/M09 A3033 RMK A01 T01211093  RH  021%=      5-min Rain = 0
KFL1 142027Z 20003KT 13/M09 A3033 RMK A01 T01271089  RH  021%=      5-min Rain = 0
KFL1 142028Z 18003KT 13/M09 A3033 RMK A01 T01321088  RH  021%=      5-min Rain = 0
KFL1 142029Z 17004KT 13/M09 A3033 RMK A01 T01341090  RH  020%=      5-min Rain = 0
KFL1 142030Z 13003KT 14/M09 A3033 RMK A01 T01361090  RH  020%=      5-min Rain = 0
KFL1 142031Z 17003KT 14/M09 A3033 RMK A01 T01381088  RH  020%=      5-min Rain = 0
KFL1 142032Z 22004KT 14/M09 A3033 RMK A01 T01381091  RH  020%=      5-min Rain = 0
KFL1 142033Z 21004KT 14/M09 A3033 RMK A01 T01381091  RH  019%=      5-min Rain = 0
KFL1 142034Z 22004KT 14/M09 A3033 RMK A01 T01391090  RH  020%=      5-min Rain = 0
KFL1 142035Z 23005KT 14/M09 A3033 RMK A01 T01381092  RH  019%=      5-min Rain = 0
KFL1 142036Z 22008KT 14/M09 A3033 RMK A01 T01351093  RH  020%=      5-min Rain = 0
KFL1 142037Z 23005KT 13/M10 A3033 RMK A01 T01321095  RH  020%=      5-min Rain = 0
KFL1 142038Z 21004KT 13/M09 A3033 RMK A01 T01291094  RH  020%=      5-min Rain = 0
KFL1 142039Z 17004KT 13/M09 A3033 RMK A01 T01331090  RH  020%=      5-min Rain = 0
KFL1 142040Z 16004KT 13/M09 A3033 RMK A01 T01321093  RH  020%=      5-min Rain = 0
KFL1 142041Z 15003KT 13/M10 A3033 RMK A01 T01301095  RH  020%=      5-min Rain = 0
KFL1 142042Z 17002KT 13/M10 A3033 RMK A01 T01261096  RH  020%=      5-min Rain = 0
KFL1 142043Z 15003KT 13/M09 A3033 RMK A01 T01271093  RH  021%=      5-min Rain = 0
KFL1 142044Z 15003KT 13/M09 A3033 RMK A01 T01251094  RH  021%=      5-min Rain = 0
KFL1 142045Z 15003KT 12/M09 A3033 RMK A01 T01241094  RH  021%=      5-min Rain = 0
KFL1 142046Z 20003KT 13/M10 A3033 RMK A01 T01251095  RH  021%=      5-min Rain = 0
KFL1 142047Z 02000KT 13/M09 A3033 RMK A01 T01261094  RH  021%=      5-min Rain = 0
KFL1 142048Z 16002KT 12/M10 A3033 RMK A01 T01241095  RH  021%=      5-min Rain = 0
KFL1 142049Z 19002KT 13/M09 A3033 RMK A01 T01271092  RH  021%=      5-min Rain = 0
KFL1 142050Z 21006KT 13/M09 A3033 RMK A01 T01291092  RH  021%=      5-min Rain = 0
KFL1 142051Z 21006KT 13/M09 A3033 RMK A01 T01311094  RH  020%=      5-min Rain = 0
KFL1 142052Z 21007KT 13/M09 A3033 RMK A01 T01311094  RH  020%=      5-min Rain = 0
KFL1 142053Z 21007KT 13/M09 A3033 RMK A01 T01331091  RH  020%=      5-min Rain = 0
KFL1 142054Z 22005KT 13/M09 A3033 RMK A01 T01321094  RH  020%=      5-min Rain = 0
KFL1 142055Z 22005KT 13/M10 A3033 RMK A01 T01321095  RH  020%=      5-min Rain = 0
KFL1 142056Z 22004KT 13/M10 A3033 RMK A01 T01311095  RH  020%=      5-min Rain = 0
KFL1 142057Z 22004KT 13/M09 A3033 RMK A01 T01311094  RH  020%=      5-min Rain = 0
KFL1 142058Z 23001KT 13/M09 A3033 RMK A01 T01321093  RH  020%=      5-min Rain = 0
KFL1 142059Z 23002KT 13/M09 A3033 RMK A01 T01331093  RH  020%=      5-min Rain = 0
KFL1 142100Z 17005KT 13/M09 A3033 RMK A01 T01331093  RH  020%=      5-min Rain = 0
KFL1 142101Z 19005KT 13/M09 A3033 RMK A01 T01331091  RH  020%=      5-min Rain = 0
KFL1 142102Z 19004KT 13/M09 A3033 RMK A01 T01331094  RH  020%=      5-min Rain = 0
KFL1 142103Z 21004KT 13/M09 A3033 RMK A01 T01341093  RH  020%=      5-min Rain = 0
KFL1 142104Z 23002KT 14/M09 A3033 RMK A01 T01361090  RH  020%=      5-min Rain = 0
KFL1 142105Z 21003KT 14/M09 A3033 RMK A01 T01381091  RH  020%=      5-min Rain = 0
KFL1 142106Z 24001KT 14/M10 A3033 RMK A01 T01351096  RH  019%=      5-min Rain = 0
KFL1 142107Z 28001KT 13/M10 A3033 RMK A01 T01341097  RH  019%=      5-min Rain = 0
KFL1 142108Z 21000KT 13/M10 A3033 RMK A01 T01341096  RH  019%=      5-min Rain = 0
KFL1 142109Z 16002KT 13/M09 A3033 RMK A01 T01341094  RH  020%=      5-min Rain = 0
KFL1 142110Z 18001KT 14/M09 A3033 RMK A01 T01351092  RH  020%=      5-min Rain = 0
KFL1 142111Z 15001KT 13/M09 A3033 RMK A01 T01341093  RH  020%=      5-min Rain = 0
KFL1 142112Z 18001KT 13/M10 A3033 RMK A01 T01311095  RH  020%=      5-min Rain = 0
KFL1 142113Z 22004KT 13/M09 A3033 RMK A01 T01321092  RH  020%=      5-min Rain = 0
KFL1 142114Z 23006KT 13/M09 A3033 RMK A01 T01341092  RH  020%=      5-min Rain = 0
KFL1 142115Z 23005KT 14/M09 A3033 RMK A01 T01351093  RH  020%=      5-min Rain = 0
KFL1 142116Z 23003KT 13/M10 A3033 RMK A01 T01331095  RH  020%=      5-min Rain = 0
KFL1 142117Z 23001KT 13/M10 A3033 RMK A01 T01291096  RH  020%=      5-min Rain = 0
KFL1 142118Z 25001KT 13/M09 A3033 RMK A01 T01291094  RH  020%=      5-min Rain = 0
KFL1 142119Z 24002KT 13/M09 A3033 RMK A01 T01331091  RH  020%=      5-min Rain = 0
KFL1 142120Z 22002KT 13/M09 A3033 RMK A01 T01331093  RH  020%=      5-min Rain = 0
KFL1 142121Z 21004KT 13/M09 A3033 RMK A01 T01321092  RH  020%=      5-min Rain = 0
KFL1 142122Z 21004KT 14/M09 A3033 RMK A01 T01351092  RH  020%=      5-min Rain = 0
KFL1 142123Z 20003KT 14/M09 A3033 RMK A01 T01371091  RH  020%=      5-min Rain = 0
KFL1 142124Z 22004KT 14/M09 A3033 RMK A01 T01371092  RH  019%=      5-min Rain = 0
KFL1 142125Z 21003KT 14/M09 A3033 RMK A01 T01371092  RH  019%=      5-min Rain = 0
KFL1 142126Z 25002KT 14/M09 A3033 RMK A01 T01381093  RH  019%=      5-min Rain = 0
KFL1 142127Z 26003KT 14/M09 A3033 RMK A01 T01401091  RH  019%=      5-min Rain = 0
KFL1 142128Z 26001KT 14/M09 A3033 RMK A01 T01391093  RH  019%=      5-min Rain = 0
KFL1 142129Z 19001KT 14/M10 A3033 RMK A01 T01371096  RH  019%=      5-min Rain = 0
KFL1 142130Z 17004KT 14/M09 A3033 RMK A01 T01371094  RH  019%=      5-min Rain = 0
KFL1 142131Z 17005KT 14/M09 A3033 RMK A01 T01361090  RH  020%=      5-min Rain = 0
KFL1 142132Z 20005KT 14/M09 A3033 RMK A01 T01371091  RH  020%=      5-min Rain = 0
KFL1 142133Z 20005KT 14/M09 A3033 RMK A01 T01381092  RH  019%=      5-min Rain = 0
KFL1 142134Z 20005KT 14/M09 A3033 RMK A01 T01381092  RH  019%=      5-min Rain = 0
KFL1 142135Z 22004KT 14/M09 A3033 RMK A01 T01391091  RH  019%=      5-min Rain = 0
KFL1 142136Z 21002KT 14/M09 A3033 RMK A01 T01381092  RH  019%=      5-min Rain = 0
KFL1 142137Z 22003KT 14/M10 A3033 RMK A01 T01361096  RH  019%=      5-min Rain = 0
KFL1 142138Z 25005KT 14/M09 A3033 RMK A01 T01371091  RH  020%=      5-min Rain = 0
KFL1 142139Z 26004KT 13/M09 A3033 RMK A01 T01341093  RH  020%=      5-min Rain = 0
KFL1 142140Z 21004KT 13/M09 A3033 RMK A01 T01341093  RH  020%=      5-min Rain = 0
KFL1 142141Z 19004KT 14/M09 A3033 RMK A01 T01351093  RH  020%=      5-min Rain = 0
KFL1 142142Z 17005KT 13/M09 A3033 RMK A01 T01341094  RH  020%=      5-min Rain = 0
KFL1 142143Z 19004KT 13/M09 A3033 RMK A01 T01341094  RH  020%=      5-min Rain = 0
KFL1 142144Z 16004KT 13/M09 A3033 RMK A01 T01341093  RH  020%=      5-min Rain = 0
KFL1 142145Z 16004KT 13/M09 A3033 RMK A01 T01331094  RH  020%=      5-min Rain = 0
KFL1 142146Z 17005KT 14/M09 A3033 RMK A01 T01351091  RH  020%=      5-min Rain = 0
KFL1 142147Z 16005KT 13/M10 A3033 RMK A01 T01311095  RH  020%=      5-min Rain = 0
KFL1 142148Z 18004KT 13/M10 A3033 RMK A01 T01271096  RH  020%=      5-min Rain = 0
KFL1 142149Z 21006KT 13/M09 A3033 RMK A01 T01301092  RH  020%=      5-min Rain = 0
KFL1 142150Z 22006KT 13/M09 A3033 RMK A01 T01311092  RH  020%=      5-min Rain = 0
KFL1 142151Z 22006KT 13/M09 A3033 RMK A01 T01331090  RH  020%=      5-min Rain = 0
KFL1 142152Z 25004KT 13/M09 A3033 RMK A01 T01311093  RH  020%=      5-min Rain = 0
KFL1 142153Z 25006KT 13/M09 A3033 RMK A01 T01301093  RH  020%=      5-min Rain = 0
KFL1 142154Z 23007KT 13/M09 A3033 RMK A01 T01321090  RH  020%=      5-min Rain = 0
KFL1 142155Z 25006KT 13/M09 A3033 RMK A01 T01331090  RH  020%=      5-min Rain = 0
KFL1 142156Z 24006KT 13/M09 A3033 RMK A01 T01321091  RH  020%=      5-min Rain = 0
KFL1 142157Z 24005KT 13/M09 A3033 RMK A01 T01291094  RH  020%=      5-min Rain = 0
KFL1 142158Z 22005KT 13/M09 A3033 RMK A01 T01291093  RH  020%=      5-min Rain = 0
KFL1 142159Z 23005KT 13/M09 A3033 RMK A01 T01321090  RH  020%=      5-min Rain = 0
KFL1 142200Z 23004KT 13/M09 A3033 RMK A01 T01321093  RH  020%=      5-min Rain = 0
KFL1 142201Z 20003KT 14/M09 A3033 RMK A01 T01351091  RH  020%=      5-min Rain = 0
KFL1 142202Z 18006KT 13/M09 A3033 RMK A01 T01341091  RH  020%=      5-min Rain = 0
KFL1 142203Z 18005KT 13/M09 A3033 RMK A01 T01331093  RH  020%=      5-min Rain = 0
KFL1 142204Z 18005KT 13/M09 A3033 RMK A01 T01331093  RH  020%=      5-min Rain = 0
KFL1 142205Z 15004KT 14/M09 A3033 RMK A01 T01351090  RH  020%=      5-min Rain = 0
KFL1 142206Z 16004KT 13/M09 A3033 RMK A01 T01341090  RH  020%=      5-min Rain = 0
KFL1 142207Z 15004KT 13/M09 A3033 RMK A01 T01321092  RH  020%=      5-min Rain = 0
KFL1 142208Z 17003KT 13/M09 A3033 RMK A01 T01331092  RH  020%=      5-min Rain = 0
KFL1 142209Z 16002KT 13/M09 A3033 RMK A01 T01341091  RH  020%=      5-min Rain = 0
KFL1 142210Z 17003KT 13/M09 A3033 RMK A01 T01321093  RH  020%=      5-min Rain = 0
KFL1 142211Z 17002KT 13/M10 A3033 RMK A01 T01311095  RH  020%=      5-min Rain = 0
KFL1 142212Z 19003KT 13/M10 A3033 RMK A01 T01301095  RH  020%=      5-min Rain = 0
KFL1 142213Z 17003KT 13/M09 A3033 RMK A01 T01301094  RH  020%=      5-min Rain = 0
KFL1 142214Z 18004KT 13/M09 A3033 RMK A01 T01311092  RH  020%=      5-min Rain = 0
KFL1 142215Z 20003KT 13/M09 A3033 RMK A01 T01291091  RH  021%=      5-min Rain = 0
KFL1 142216Z 21004KT 13/M09 A3033 RMK A01 T01311092  RH  020%=      5-min Rain = 0
KFL1 142217Z 22006KT 13/M09 A3033 RMK A01 T01321091  RH  020%=      5-min Rain = 0
KFL1 142218Z 21007KT 13/M09 A3033 RMK A01 T01331092  RH  020%=      5-min Rain = 0
KFL1 142219Z 20005KT 14/M09 A3033 RMK A01 T01351090  RH  020%=      5-min Rain = 0
KFL1 142220Z 21005KT 13/M09 A3033 RMK A01 T01331094  RH  020%=      5-min Rain = 0
KFL1 142221Z 19004KT 13/M09 A3033 RMK A01 T01341094  RH  020%=      5-min Rain = 0
KFL1 142222Z 20004KT 13/M09 A3033 RMK A01 T01341093  RH  020%=      5-min Rain = 0
KFL1 142223Z 21001KT 14/M09 A3033 RMK A01 T01351093  RH  020%=      5-min Rain = 0
KFL1 142224Z 23003KT 14/M09 A3033 RMK A01 T01381090  RH  020%=      5-min Rain = 0
KFL1 142225Z 21003KT 14/M09 A3033 RMK A01 T01361092  RH  020%=      5-min Rain = 0
KFL1 142226Z 20005KT 14/M09 A3033 RMK A01 T01361091  RH  020%=      5-min Rain = 0
KFL1 142227Z 18004KT 14/M09 A3033 RMK A01 T01351092  RH  020%=      5-min Rain = 0
KFL1 142228Z 20004KT 13/M09 A3033 RMK A01 T01331094  RH  020%=      5-min Rain = 0
KFL1 142229Z 21005KT 13/M09 A3033 RMK A01 T01331093  RH  020%=      5-min Rain = 0
KFL1 142230Z 22005KT 13/M09 A3033 RMK A01 T01311094  RH  020%=      5-min Rain = 0
KFL1 142231Z 19003KT 13/M09 A3033 RMK A01 T01321091  RH  020%=      5-min Rain = 0
KFL1 142232Z 20005KT 13/M09 A3033 RMK A01 T01311092  RH  020%=      5-min Rain = 0
KFL1 142233Z 20004KT 13/M09 A3033 RMK A01 T01321093  RH  020%=      5-min Rain = 0
KFL1 142234Z 21004KT 13/M09 A3033 RMK A01 T01331091  RH  020%=      5-min Rain = 0
KFL1 142235Z 20006KT 13/M09 A3033 RMK A01 T01311093  RH  020%=      5-min Rain = 0
KFL1 142236Z 18006KT 13/M09 A3033 RMK A01 T01301094  RH  020%=      5-min Rain = 0
KFL1 142237Z 20007KT 13/M09 A3033 RMK A01 T01291094  RH  020%=      5-min Rain = 0
KFL1 142238Z 21007KT 13/M10 A3033 RMK A01 T01271095  RH  020%=      5-min Rain = 0
KFL1 142239Z 21006KT 13/M09 A3033 RMK A01 T01261094  RH  021%=      5-min Rain = 0
KFL1 142240Z 21006KT 12/M10 A3033 RMK A01 T01231096  RH  021%=      5-min Rain = 0
KFL1 142241Z 20008KT 12/M10 A3033 RMK A01 T01211095  RH  021%=      5-min Rain = 0
KFL1 142242Z 20006KT 12/M10 A3033 RMK A01 T01191096  RH  021%=      5-min Rain = 0
KFL1 142243Z 21007KT 12/M09 A3033 RMK A01 T01181093  RH  022%=      5-min Rain = 0
KFL1 142244Z 19007KT 11/M10 A3033 RMK A01 T01141095  RH  022%=      5-min Rain = 0
KFL1 142245Z 20005KT 11/M10 A3033 RMK A01 T01141095  RH  022%=      5-min Rain = 0
KFL1 142246Z 20006KT 11/M09 A3033 RMK A01 T01141093  RH  022%=      5-min Rain = 0
KFL1 142247Z 20006KT 11/M10 A3034 RMK A01 T01131095  RH  022%=      5-min Rain = 0
KFL1 142248Z 20004KT 12/M09 A3034 RMK A01 T01151093  RH  022%=      5-min Rain = 0
KFL1 142249Z 20005KT 12/M09 A3034 RMK A01 T01171093  RH  022%=      5-min Rain = 0
KFL1 142250Z 19005KT 12/M09 A3034 RMK A01 T01181093  RH  022%=      5-min Rain = 0
KFL1 142251Z 19005KT 12/M10 A3034 RMK A01 T01181095  RH  021%=      5-min Rain = 0
KFL1 142252Z 21006KT 12/M10 A3034 RMK A01 T01181096  RH  021%=      5-min Rain = 0
KFL1 142253Z 21006KT 12/M09 A3034 RMK A01 T01201093  RH  022%=      5-min Rain = 0
KFL1 142254Z 22006KT 12/M09 A3034 RMK A01 T01221090  RH  022%=      5-min Rain = 0
KFL1 142255Z 21007KT 12/M09 A3034 RMK A01 T01211092  RH  022%=      5-min Rain = 0
KFL1 142256Z 21006KT 12/M09 A3034 RMK A01 T01221092  RH  022%=      5-min Rain = 0
KFL1 142257Z 21005KT 12/M09 A3034 RMK A01 T01211093  RH  022%=      5-min Rain = 0
KFL1 142258Z 22005KT 12/M09 A3034 RMK A01 T01201093  RH  022%=      5-min Rain = 0
KFL1 142259Z 22004KT 12/M09 A3034 RMK A01 T01191093  RH  022%=      5-min Rain = 0
KFL1 142300Z 21006KT 12/M09 A3034 RMK A01 T01191092  RH  022%=      5-min Rain = 0
KFL1 142301Z 21007KT 12/M09 A3034 RMK A01 T01201090  RH  022%=      5-min Rain = 0
KFL1 142302Z 21006KT 12/M09 A3034 RMK A01 T01191093  RH  022%=      5-min Rain = 0
KFL1 142303Z 21007KT 12/M10 A3034 RMK A01 T01171095  RH  022%=      5-min Rain = 0
KFL1 142304Z 22005KT 12/M09 A3034 RMK A01 T01181093  RH  022%=      5-min Rain = 0
KFL1 142305Z 21006KT 12/M09 A3034 RMK A01 T01181090  RH  022%=      5-min Rain = 0
KFL1 142306Z 21005KT 12/M09 A3034 RMK A01 T01161093  RH  022%=      5-min Rain = 0
KFL1 142307Z 21006KT 11/M09 A3034 RMK A01 T01141092  RH  023%=      5-min Rain = 0
KFL1 142308Z 21006KT 11/M09 A3034 RMK A01 T01111094  RH  023%=      5-min Rain = 0
KFL1 142309Z 21005KT 11/M10 A3034 RMK A01 T01081096  RH  023%=      5-min Rain = 0
KFL1 142310Z 21004KT 11/M10 A3034 RMK A01 T01061097  RH  023%=      5-min Rain = 0
KFL1 142311Z 20004KT 11/M10 A3034 RMK A01 T01061096  RH  023%=      5-min Rain = 0
KFL1 142312Z 21004KT 11/M09 A3034 RMK A01 T01061094  RH  024%=      5-min Rain = 0
KFL1 142313Z 21004KT 10/M10 A3034 RMK A01 T01041095  RH  024%=      5-min Rain = 0
KFL1 142314Z 22004KT 10/M09 A3034 RMK A01 T01041093  RH  024%=      5-min Rain = 0
KFL1 142315Z 21005KT 10/M09 A3034 RMK A01 T01011094  RH  024%=      5-min Rain = 0
KFL1 142316Z 22004KT 10/M09 A3034 RMK A01 T01011094  RH  024%=      5-min Rain = 0
KFL1 142317Z 22004KT 10/M09 A3034 RMK A01 T01001094  RH  024%=      5-min Rain = 0
KFL1 142318Z 22004KT 10/M10 A3034 RMK A01 T00981095  RH  025%=      5-min Rain = 0
KFL1 142319Z 22005KT 10/M10 A3034 RMK A01 T00971095  RH  025%=      5-min Rain = 0
KFL1 142320Z 23005KT 10/M10 A3034 RMK A01 T00951096  RH  025%=      5-min Rain = 0
KFL1 142321Z 23004KT 09/M10 A3034 RMK A01 T00941097  RH  025%=      5-min Rain = 0
KFL1 142322Z 24005KT 09/M10 A3034 RMK A01 T00931096  RH  025%=      5-min Rain = 0
KFL1 142323Z 25006KT 09/M09 A3034 RMK A01 T00921094  RH  026%=      5-min Rain = 0
KFL1 142324Z 24005KT 09/M09 A3034 RMK A01 T00911094  RH  026%=      5-min Rain = 0
KFL1 142325Z 24005KT 09/M09 A3034 RMK A01 T00891094  RH  026%=      5-min Rain = 0
KFL1 142326Z 24005KT 09/M09 A3034 RMK A01 T00891094  RH  026%=      5-min Rain = 0
KFL1 142327Z 24005KT 09/M09 A3034 RMK A01 T00891093  RH  027%=      5-min Rain = 0
KFL1 142328Z 24005KT 09/M10 A3034 RMK A01 T00871095  RH  026%=      5-min Rain = 0
KFL1 142329Z 24005KT 09/M09 A3034 RMK A01 T00881094  RH  026%=      5-min Rain = 0
KFL1 142330Z 25005KT 09/M09 A3034 RMK A01 T00891093  RH  027%=      5-min Rain = 0
KFL1 142331Z 24004KT 09/M10 A3034 RMK A01 T00871096  RH  026%=      5-min Rain = 0
KFL1 142332Z 24004KT 09/M09 A3034 RMK A01 T00891093  RH  026%=      5-min Rain = 0
KFL1 142333Z 24004KT 09/M09 A3034 RMK A01 T00891094  RH  026%=      5-min Rain = 0
KFL1 142334Z 24004KT 09/M09 A3034 RMK A01 T00901094  RH  026%=      5-min Rain = 0
KFL1 142335Z 23005KT 09/M10 A3034 RMK A01 T00881096  RH  026%=      5-min Rain = 0
KFL1 142336Z 22006KT 09/M10 A3035 RMK A01 T00881096  RH  026%=      5-min Rain = 0
KFL1 142337Z 22005KT 09/M10 A3035 RMK A01 T00881097  RH  026%=      5-min Rain = 0
KFL1 142338Z 22005KT 09/M10 A3035 RMK A01 T00871097  RH  026%=      5-min Rain = 0
KFL1 142339Z 22005KT 09/M10 A3035 RMK A01 T00861095  RH  027%=      5-min Rain = 0
KFL1 142340Z 22004KT 08/M10 A3035 RMK A01 T00831097  RH  027%=      5-min Rain = 0
KFL1 142341Z 22004KT 08/M10 A3035 RMK A01 T00811096  RH  027%=      5-min Rain = 0
KFL1 142342Z 22005KT 08/M10 A3035 RMK A01 T00791097  RH  028%=      5-min Rain = 0
KFL1 142343Z 22004KT 08/M10 A3035 RMK A01 T00791096  RH  028%=      5-min Rain = 0
KFL1 142344Z 22004KT 08/M10 A3035 RMK A01 T00771097  RH  028%=      5-min Rain = 0
KFL1 142345Z 22004KT 08/M10 A3035 RMK A01 T00771096  RH  028%=      5-min Rain = 0
KFL1 142346Z 22004KT 08/M10 A3035 RMK A01 T00771096  RH  028%=      5-min Rain = 0
KFL1 142347Z 22004KT 08/M10 A3035 RMK A01 T00761098  RH  028%=      5-min Rain = 0
KFL1 142348Z 22004KT 08/M10 A3035 RMK A01 T00761097  RH  028%=      5-min Rain = 0
KFL1 142349Z 21004KT 08/M10 A3035 RMK A01 T00751098  RH  028%=      5-min Rain = 0
KFL1 142350Z 21004KT 07/M10 A3035 RMK A01 T00731099  RH  028%=      5-min Rain = 0
KFL1 142351Z 21005KT 07/M10 A3035 RMK A01 T00721099  RH  028%=      5-min Rain = 0
KFL1 142352Z 21005KT 07/M10 A3035 RMK A01 T00711098  RH  029%=      5-min Rain = 0
KFL1 142353Z 20005KT 07/M10 A3035 RMK A01 T00701099  RH  029%=      5-min Rain = 0
KFL1 142354Z 20004KT 07/M10 A3035 RMK A01 T00701097  RH  029%=      5-min Rain = 0
KFL1 142355Z 20004KT 07/M10 A3035 RMK A01 T00691098  RH  029%=      5-min Rain = 0
KFL1 142356Z 20004KT 07/M10 A3035 RMK A01 T00661100  RH  030%=      5-min Rain = 0
KFL1 142357Z 21004KT 07/M10 A3035 RMK A01 T00651099  RH  030%=      5-min Rain = 0
KFL1 142358Z 21004KT 07/M10 A3035 RMK A01 T00651098  RH  030%=      5-min Rain = 0
KFL1 142359Z 21004KT 06/M10 A3035 RMK A01 T00641098  RH  030%=      5-min Rain = 0
KFL1 150000Z 22003KT 06/M10 A3035 RMK A01 T00631098  RH  031%=      5-min Rain = 0
KFL1 150001Z 22003KT 06/M10 A3035 RMK A01 T00611097  RH  031%=      5-min Rain = 0
KFL1 150002Z 23003KT 06/M10 A3035 RMK A01 T00581098  RH  032%=      5-min Rain = 0
KFL1 150003Z 23003KT 06/M10 A3035 RMK A01 T00571098  RH  032%=      5-min Rain = 0
KFL1 150004Z 25003KT 06/M10 A3035 RMK A01 T00561097  RH  032%=      5-min Rain = 0
KFL1 150005Z 25002KT 05/M10 A3035 RMK A01 T00541098  RH  032%=      5-min Rain = 0
KFL1 150006Z 25002KT 05/M10 A3035 RMK A01 T00541099  RH  032%=      5-min Rain = 0
KFL1 150007Z 26002KT 06/M10 A3035 RMK A01 T00551098  RH  032%=      5-min Rain = 0
KFL1 150008Z 26003KT 06/M10 A3035 RMK A01 T00551098  RH  032%=      5-min Rain = 0
KFL1 150009Z 26003KT 06/M10 A3035 RMK A01 T00561097  RH  032%=      5-min Rain = 0
KFL1 150010Z 26002KT 05/M10 A3036 RMK A01 T00541099  RH  032%=      5-min Rain = 0
KFL1 150011Z 25002KT 06/M10 A3036 RMK A01 T00551097  RH  032%=      5-min Rain = 0
KFL1 150012Z 25003KT 05/M10 A3036 RMK A01 T00541099  RH  032%=      5-min Rain = 0
KFL1 150013Z 25003KT 05/M10 A3036 RMK A01 T00541099  RH  032%=      5-min Rain = 0
KFL1 150014Z 25003KT 06/M10 A3036 RMK A01 T00551099  RH  032%=      5-min Rain = 0
KFL1 150015Z 24003KT 05/M10 A3036 RMK A01 T00531100  RH  032%=      5-min Rain = 0
KFL1 150016Z 23003KT 06/M10 A3036 RMK A01 T00551098  RH  032%=      5-min Rain = 0
KFL1 150017Z 23003KT 05/M10 A3036 RMK A01 T00541099  RH  032%=      5-min Rain = 0
KFL1 150018Z 22003KT 06/M10 A3036 RMK A01 T00561099  RH  032%=      5-min Rain = 0
KFL1 150019Z 23003KT 06/M10 A3036 RMK A01 T00581098  RH  032%=      5-min Rain = 0
KFL1 150020Z 24002KT 06/M10 A3036 RMK A01 T00601097  RH  031%=      5-min Rain = 0
KFL1 150021Z 26002KT 06/M10 A3036 RMK A01 T00601098  RH  031%=      5-min Rain = 0
KFL1 150022Z 27001KT 06/M10 A3036 RMK A01 T00601097  RH  031%=      5-min Rain = 0
KFL1 150023Z 28001KT 06/M10 A3036 RMK A01 T00561097  RH  032%=      5-min Rain = 0
KFL1 150024Z 29001KT 05/M10 A3036 RMK A01 T00481098  RH  034%=      5-min Rain = 0
KFL1 150025Z 30001KT 04/M10 A3036 RMK A01 T00441097  RH  035%=      5-min Rain = 0
KFL1 150026Z 29001KT 04/M10 A3036 RMK A01 T00351096  RH  038%=      5-min Rain = 0
KFL1 150027Z 30001KT 02/M10 A3036 RMK A01 T00231096  RH  041%=      5-min Rain = 0
KFL1 150028Z 31001KT 01/M10 A3036 RMK A01 T00121096  RH  044%=      5-min Rain = 0
KFL1 150029Z 31001KT 01/M10 A3036 RMK A01 T00051095  RH  047%=      5-min Rain = 0
KFL1 150030Z 31002KT 00/10 A3036 RMK A01 T00000-95  RH  049%=      5-min Rain = 0
KFL1 150031Z 30001KT M00/M09 A3036 RMK A01 T10011092  RH  050%=      5-min Rain = 0
KFL1 150032Z 29001KT M00/M09 A3036 RMK A01 T10021092  RH  051%=      5-min Rain = 0
KFL1 150033Z 27002KT 00/M09 A3036 RMK A01 T00011090  RH  050%=      5-min Rain = 0
KFL1 150034Z 28001KT 00/M09 A3036 RMK A01 T00041090  RH  049%=      5-min Rain = 0
KFL1 150035Z 28002KT 00/M09 A3036 RMK A01 T00041092  RH  049%=      5-min Rain = 0
KFL1 150036Z 27002KT 01/M09 A3036 RMK A01 T00091091  RH  047%=      5-min Rain = 0
KFL1 150037Z 26002KT 02/M09 A3036 RMK A01 T00201090  RH  044%=      5-min Rain = 0
KFL1 150038Z 26002KT 03/M09 A3036 RMK A01 T00281091  RH  041%=      5-min Rain = 0
KFL1 150039Z 26002KT 04/M09 A3036 RMK A01 T00351091  RH  039%=      5-min Rain = 0
KFL1 150040Z 27002KT 04/M10 A3036 RMK A01 T00351095  RH  038%=      5-min Rain = 0
KFL1 150041Z 28002KT 04/M10 A3036 RMK A01 T00351095  RH  038%=      5-min Rain = 0
KFL1 150042Z 28002KT 03/M10 A3036 RMK A01 T00321098  RH  038%=      5-min Rain = 0
KFL1 150043Z 28002KT 03/M10 A3036 RMK A01 T00331097  RH  038%=      5-min Rain = 0
KFL1 150044Z 29002KT 03/M10 A3036 RMK A01 T00341095  RH  038%=      5-min Rain = 0
KFL1 150045Z 29002KT 02/M10 A3036 RMK A01 T00241100  RH  039%=      5-min Rain = 0
KFL1 150046Z 29001KT 02/M10 A3036 RMK A01 T00211098  RH  041%=      5-min Rain = 0
KFL1 150047Z 28001KT 02/M10 A3036 RMK A01 T00191099  RH  041%=      5-min Rain = 0
KFL1 150048Z 26001KT 02/M10 A3036 RMK A01 T00231097  RH  041%=      5-min Rain = 0
KFL1 150049Z 28001KT 03/M10 A3036 RMK A01 T00261096  RH  040%=      5-min Rain = 0
KFL1 150050Z 28001KT 02/M10 A3036 RMK A01 T00241098  RH  040%=      5-min Rain = 0
KFL1 150051Z 30002KT 01/M10 A3036 RMK A01 T00141101  RH  042%=      5-min Rain = 0
KFL1 150052Z 30002KT 00/M10 A3036 RMK A01 T00031103  RH  045%=      5-min Rain = 0
KFL1 150053Z 30002KT M00/M10 A3036 RMK A01 T10021100  RH  048%=      5-min Rain = 0
KFL1 150054Z 29002KT M01/M10 A3036 RMK A01 T10081100  RH  050%=      5-min Rain = 0
KFL1 150055Z 30002KT M01/M10 A3036 RMK A01 T10101100  RH  051%=      5-min Rain = 0
KFL1 150056Z 31002KT M01/M10 A3036 RMK A01 T10121099  RH  051%=      5-min Rain = 0
KFL1 150057Z 31003KT M01/M10 A3036 RMK A01 T10131098  RH  052%=      5-min Rain = 0
KFL1 150058Z 32003KT M02/M10 A3036 RMK A01 T10151098  RH  053%=      5-min Rain = 0
KFL1 150059Z 32003KT M02/M10 A3036 RMK A01 T10171098  RH  054%=      5-min Rain = 0
KFL1 150100Z 32003KT M02/M10 A3037 RMK A01 T10171097  RH  055%=      5-min Rain = 0
KFL1 150101Z 33002KT M02/M10 A3037 RMK A01 T10191098  RH  055%=      5-min Rain = 0
KFL1 150102Z 33003KT M02/M10 A3037 RMK A01 T10191097  RH  055%=      5-min Rain = 0
KFL1 150103Z 33003KT M02/M10 A3037 RMK A01 T10191097  RH  055%=      5-min Rain = 0
KFL1 150104Z 33003KT M02/M10 A3037 RMK A01 T10181097  RH  055%=      5-min Rain = 0
KFL1 150105Z 33002KT M02/M10 A3037 RMK A01 T10171097  RH  055%=      5-min Rain = 0
KFL1 150106Z 34002KT M02/M10 A3037 RMK A01 T10181097  RH  054%=      5-min Rain = 0
KFL1 150107Z 33002KT M02/M10 A3037 RMK A01 T10151096  RH  054%=      5-min Rain = 0
KFL1 150108Z 33002KT M01/M10 A3037 RMK A01 T10141095  RH  054%=      5-min Rain = 0
KFL1 150109Z 33002KT M02/M10 A3037 RMK A01 T10151097  RH  054%=      5-min Rain = 0
KFL1 150110Z 34002KT M01/M10 A3037 RMK A01 T10141096  RH  054%=      5-min Rain = 0
KFL1 150111Z 34003KT M02/M10 A3037 RMK A01 T10151097  RH  054%=      5-min Rain = 0
KFL1 150112Z 34003KT M02/M10 A3037 RMK A01 T10161097  RH  054%=      5-min Rain = 0
KFL1 150113Z 34003KT M02/M10 A3037 RMK A01 T10151095  RH  054%=      5-min Rain = 0
KFL1 150114Z 35002KT M02/M10 A3037 RMK A01 T10161097  RH  054%=      5-min Rain = 0
KFL1 150115Z 34002KT M02/M10 A3037 RMK A01 T10161096  RH  054%=      5-min Rain = 0
KFL1 150116Z 35002KT M02/M10 A3037 RMK A01 T10161095  RH  055%=      5-min Rain = 0
KFL1 150117Z 35002KT M02/M10 A3037 RMK A01 T10161095  RH  055%=      5-min Rain = 0
KFL1 150118Z 35003KT M02/M10 A3037 RMK A01 T10191096  RH  056%=      5-min Rain = 0
KFL1 150119Z 34003KT M02/M10 A3037 RMK A01 T10211097  RH  056%=      5-min Rain = 0
KFL1 150120Z 35003KT M02/M10 A3037 RMK A01 T10211096  RH  057%=      5-min Rain = 0
KFL1 150121Z 34003KT M02/M10 A3037 RMK A01 T10221097  RH  056%=      5-min Rain = 0
KFL1 150122Z 34002KT M02/M10 A3037 RMK A01 T10221097  RH  056%=      5-min Rain = 0
KFL1 150123Z 34002KT M02/M10 A3037 RMK A01 T10231097  RH  057%=      5-min Rain = 0
KFL1 150124Z 34002KT M02/M10 A3037 RMK A01 T10231097  RH  057%=      5-min Rain = 0
KFL1 150125Z 34002KT M02/M10 A3037 RMK A01 T10241098  RH  057%=      5-min Rain = 0
KFL1 150126Z 35002KT M02/M10 A3037 RMK A01 T10231098  RH  057%=      5-min Rain = 0
KFL1 150127Z 35002KT M02/M10 A3037 RMK A01 T10221098  RH  056%=      5-min Rain = 0
KFL1 150128Z 00003KT M02/M10 A3037 RMK A01 T10191098  RH  055%=      5-min Rain = 0
KFL1 150129Z 00003KT M02/M10 A3037 RMK A01 T10161097  RH  054%=      5-min Rain = 0
KFL1 150130Z 00003KT M01/M10 A3037 RMK A01 T10111096  RH  052%=      5-min Rain = 0
KFL1 150131Z 01003KT M01/M10 A3037 RMK A01 T10071095  RH  051%=      5-min Rain = 0
KFL1 150132Z 01003KT M00/M10 A3037 RMK A01 T10041096  RH  050%=      5-min Rain = 0
KFL1 150133Z 02003KT 00/10 A3037 RMK A01 T00-00-96  RH  049%=      5-min Rain = 0
KFL1 150134Z 03003KT 01/M10 A3037 RMK A01 T00051095  RH  047%=      5-min Rain = 0
KFL1 150135Z 03003KT 01/M10 A3037 RMK A01 T00091096  RH  045%=      5-min Rain = 0
KFL1 150136Z 03003KT 01/M10 A3037 RMK A01 T00101097  RH  045%=      5-min Rain = 0
KFL1 150137Z 02003KT 01/M10 A3037 RMK A01 T00071097  RH  046%=      5-min Rain = 0
KFL1 150138Z 02003KT M00/M10 A3037 RMK A01 T10031101  RH  048%=      5-min Rain = 0
KFL1 150139Z 01003KT M01/M10 A3037 RMK A01 T10121102  RH  050%=      5-min Rain = 0
KFL1 150140Z 00003KT M02/M10 A3037 RMK A01 T10171101  RH  053%=      5-min Rain = 0
KFL1 150141Z 00003KT M02/M10 A3037 RMK A01 T10231102  RH  055%=      5-min Rain = 0
KFL1 150142Z 00003KT M03/M10 A3037 RMK A01 T10261100  RH  057%=      5-min Rain = 0
KFL1 150143Z 01003KT M03/M10 A3037 RMK A01 T10261099  RH  057%=      5-min Rain = 0
KFL1 150144Z 02003KT M03/M10 A3037 RMK A01 T10261099  RH  057%=      5-min Rain = 0
KFL1 150145Z 05002KT M02/M10 A3037 RMK A01 T10201096  RH  056%=      5-min Rain = 0
KFL1 150146Z 04002KT M01/M09 A3037 RMK A01 T10101094  RH  053%=      5-min Rain = 0
KFL1 150147Z 03003KT M00/M09 A3038 RMK A01 T10031094  RH  050%=      5-min Rain = 0
KFL1 150148Z 04003KT M00/M10 A3038 RMK A01 T10011097  RH  049%=      5-min Rain = 0
KFL1 150149Z 04003KT M00/M10 A3037 RMK A01 T10011097  RH  048%=      5-min Rain = 0
KFL1 150150Z 04004KT M00/M10 A3037 RMK A01 T10011098  RH  048%=      5-min Rain = 0
KFL1 150151Z 04004KT 00/10 A3037 RMK A01 T00-00-100  RH  047%=      5-min Rain = 0
KFL1 150152Z 05006KT 00/M10 A3037 RMK A01 T00031102  RH  045%=      5-min Rain = 0
KFL1 150153Z 05006KT 01/M10 A3037 RMK A01 T00061102  RH  044%=      5-min Rain = 0
KFL1 150154Z 05006KT 01/M10 A3038 RMK A01 T00071103  RH  044%=      5-min Rain = 0
KFL1 150155Z 05006KT 01/M10 A3038 RMK A01 T00101101  RH  043%=      5-min Rain = 0
KFL1 150156Z 04006KT 01/M10 A3038 RMK A01 T00121101  RH  043%=      5-min Rain = 0
KFL1 150157Z 04006KT 01/M10 A3038 RMK A01 T00131101  RH  042%=      5-min Rain = 0
KFL1 150158Z 04006KT 02/M10 A3038 RMK A01 T00151099  RH  042%=      5-min Rain = 0
KFL1 150159Z 04007KT 02/M10 A3038 RMK A01 T00191097  RH  042%=      5-min Rain = 0
KFL1 150200Z 04006KT 02/M10 A3038 RMK A01 T00201098  RH  041%=      5-min Rain = 0
KFL1 150201Z 04006KT 02/M10 A3037 RMK A01 T00191098  RH  042%=      5-min Rain = 0
KFL1 150202Z 04006KT 01/M10 A3037 RMK A01 T00141099  RH  043%=      5-min Rain = 0
KFL1 150203Z 04006KT 01/M10 A3037 RMK A01 T00111099  RH  044%=      5-min Rain = 0
KFL1 150204Z 04006KT 01/M10 A3037 RMK A01 T00101098  RH  044%=      5-min Rain = 0
KFL1 150205Z 04006KT 01/M10 A3038 RMK A01 T00051100  RH  045%=      5-min Rain = 0
KFL1 150206Z 04006KT 00/10 A3038 RMK A01 T00-00-99  RH  048%=      5-min Rain = 0
KFL1 150207Z 04005KT M01/M10 A3038 RMK A01 T10101101  RH  050%=      5-min Rain = 0
KFL1 150208Z 04005KT M02/M10 A3038 RMK A01 T10151099  RH  053%=      5-min Rain = 0
KFL1 150209Z 04005KT M02/M10 A3038 RMK A01 T10151097  RH  054%=      5-min Rain = 0
KFL1 150210Z 04005KT M02/M10 A3038 RMK A01 T10151096  RH  054%=      5-min Rain = 0
KFL1 150211Z 05005KT M01/M09 A3038 RMK A01 T10131094  RH  054%=      5-min Rain = 0
KFL1 150212Z 04005KT M02/M10 A3037 RMK A01 T10151095  RH  054%=      5-min Rain = 0
KFL1 150213Z 04005KT M02/M10 A3037 RMK A01 T10161095  RH  055%=      5-min Rain = 0
KFL1 150214Z 04005KT M02/M10 A3037 RMK A01 T10201097  RH  056%=      5-min Rain = 0
KFL1 150215Z 04006KT M02/M10 A3038 RMK A01 T10201096  RH  056%=      5-min Rain = 0
KFL1 150216Z 04007KT M02/M10 A3038 RMK A01 T10151096  RH  054%=      5-min Rain = 0
KFL1 150217Z 04007KT M01/M09 A3038 RMK A01 T10051094  RH  051%=      5-min Rain = 0
KFL1 150218Z 04007KT 01/M09 A3038 RMK A01 T00051092  RH  048%=      5-min Rain = 0
KFL1 150219Z 04006KT 01/M09 A3038 RMK A01 T00131092  RH  046%=      5-min Rain = 0
KFL1 150220Z 03005KT 02/M09 A3038 RMK A01 T00161093  RH  044%=      5-min Rain = 0
KFL1 150221Z 03005KT 01/M10 A3038 RMK A01 T00051099  RH  045%=      5-min Rain = 0
KFL1 150222Z 04005KT M00/M10 A3038 RMK A01 T10041100  RH  048%=      5-min Rain = 0
KFL1 150223Z 04005KT M01/M10 A3038 RMK A01 T10091099  RH  051%=      5-min Rain = 0
KFL1 150224Z 04005KT M01/M10 A3038 RMK A01 T10111096  RH  052%=      5-min Rain = 0
KFL1 150225Z 04006KT M02/M10 A3038 RMK A01 T10151096  RH  054%=      5-min Rain = 0
KFL1 150226Z 04006KT M02/M10 A3038 RMK A01 T10181097  RH  055%=      5-min Rain = 0
KFL1 150227Z 03006KT M02/M10 A3038 RMK A01 T10191095  RH  056%=      5-min Rain = 0
KFL1 150228Z 04006KT M02/M10 A3038 RMK A01 T10231097  RH  057%=      5-min Rain = 0
KFL1 150229Z 04006KT M03/M10 A3038 RMK A01 T10251096  RH  058%=      5-min Rain = 0
KFL1 150230Z 03006KT M02/M09 A3038 RMK A01 T10241094  RH  059%=      5-min Rain = 0
KFL1 150231Z 03006KT M02/M09 A3038 RMK A01 T10221092  RH  059%=      5-min Rain = 0
KFL1 150232Z 04005KT M02/M09 A3038 RMK A01 T10241094  RH  059%=      5-min Rain = 0
KFL1 150233Z 04006KT M03/M10 A3038 RMK A01 T10261095  RH  059%=      5-min Rain = 0
KFL1 150234Z 04006KT M03/M09 A3038 RMK A01 T10261093  RH  060%=      5-min Rain = 0
KFL1 150235Z 04006KT M02/M09 A3038 RMK A01 T10241093  RH  059%=      5-min Rain = 0
KFL1 150236Z 04006KT M02/M09 A3038 RMK A01 T10201092  RH  058%=      5-min Rain = 0
KFL1 150237Z 04006KT M02/M09 A3038 RMK A01 T10151092  RH  056%=      5-min Rain = 0
KFL1 150238Z 04005KT M01/M09 A3038 RMK A01 T10101091  RH  054%=      5-min Rain = 0
KFL1 150239Z 04005KT M01/M09 A3038 RMK A01 T10101092  RH  054%=      5-min Rain = 0
KFL1 150240Z 04005KT M01/M09 A3038 RMK A01 T10141093  RH  055%=      5-min Rain = 0
KFL1 150241Z 04005KT M02/M09 A3038 RMK A01 T10171093  RH  056%=      5-min Rain = 0
KFL1 150242Z 04005KT M02/M09 A3038 RMK A01 T10201094  RH  057%=      5-min Rain = 0
KFL1 150243Z 04005KT M02/M09 A3038 RMK A01 T10201093  RH  058%=      5-min Rain = 0
KFL1 150244Z 04005KT M02/M09 A3038 RMK A01 T10201093  RH  057%=      5-min Rain = 0
KFL1 150245Z 04005KT M02/M09 A3038 RMK A01 T10161092  RH  056%=      5-min Rain = 0
KFL1 150246Z 04006KT M01/M09 A3038 RMK A01 T10131093  RH  055%=      5-min Rain = 0
KFL1 150247Z 04007KT M01/M09 A3038 RMK A01 T10061092  RH  052%=      5-min Rain = 0
KFL1 150248Z 04007KT M00/M09 A3038 RMK A01 T10021093  RH  050%=      5-min Rain = 0
KFL1 150249Z 04007KT 00/M09 A3038 RMK A01 T00021093  RH  049%=      5-min Rain = 0
KFL1 150250Z 03006KT 00/M09 A3038 RMK A01 T00041094  RH  048%=      5-min Rain = 0
KFL1 150251Z 03006KT M00/M10 A3038 RMK A01 T10041097  RH  049%=      5-min Rain = 0
KFL1 150252Z 03006KT M01/M10 A3038 RMK A01 T10111097  RH  052%=      5-min Rain = 0
KFL1 150253Z 03007KT M02/M10 A3038 RMK A01 T10191098  RH  055%=      5-min Rain = 0
KFL1 150254Z 02007KT M02/M10 A3038 RMK A01 T10221095  RH  058%=      5-min Rain = 0
KFL1 150255Z 03005KT M02/M09 A3038 RMK A01 T10231094  RH  059%=      5-min Rain = 0
KFL1 150256Z 02006KT M02/M09 A3038 RMK A01 T10201091  RH  058%=      5-min Rain = 0
KFL1 150257Z 02006KT M02/M09 A3038 RMK A01 T10201092  RH  058%=      5-min Rain = 0
KFL1 150258Z 03006KT M02/M09 A3038 RMK A01 T10211093  RH  058%=      5-min Rain = 0
KFL1 150259Z 03005KT M02/M09 A3038 RMK A01 T10211093  RH  058%=      5-min Rain = 0
KFL1 150300Z 03005KT M02/M09 A3038 RMK A01 T10191092  RH  057%=      5-min Rain = 0
KFL1 150301Z 03005KT M02/M09 A3038 RMK A01 T10151091  RH  056%=      5-min Rain = 0
KFL1 150302Z 03004KT M01/M09 A3038 RMK A01 T10131090  RH  056%=      5-min Rain = 0
KFL1 150303Z 03004KT M01/M09 A3039 RMK A01 T10141091  RH  056%=      5-min Rain = 0
KFL1 150304Z 03003KT M02/M09 A3039 RMK A01 T10151090  RH  057%=      5-min Rain = 0
KFL1 150305Z 02003KT M02/M09 A3039 RMK A01 T10191093  RH  057%=      5-min Rain = 0
KFL1 150306Z 02005KT M02/M09 A3039 RMK A01 T10191092  RH  057%=      5-min Rain = 0
KFL1 150307Z 03005KT M02/M09 A3039 RMK A01 T10201092  RH  057%=      5-min Rain = 0
KFL1 150308Z 03005KT M02/M09 A3039 RMK A01 T10211093  RH  058%=      5-min Rain = 0
KFL1 150309Z 03006KT M02/M09 A3039 RMK A01 T10211093  RH  058%=      5-min Rain = 0
KFL1 150310Z 03006KT M02/M09 A3039 RMK A01 T10221092  RH  058%=      5-min Rain = 0
KFL1 150311Z 03006KT M02/M09 A3039 RMK A01 T10201091  RH  059%=      5-min Rain = 0
KFL1 150312Z 03006KT M02/M09 A3039 RMK A01 T10211092  RH  058%=      5-min Rain = 0
KFL1 150313Z 03006KT M02/M09 A3039 RMK A01 T10191091  RH  058%=      5-min Rain = 0
KFL1 150314Z 03006KT M02/M09 A3039 RMK A01 T10171091  RH  057%=      5-min Rain = 0
KFL1 150315Z 03007KT M02/M09 A3039 RMK A01 T10181093  RH  057%=      5-min Rain = 0
KFL1 150316Z 03006KT M02/M09 A3039 RMK A01 T10191092  RH  057%=      5-min Rain = 0
KFL1 150317Z 03005KT M02/M09 A3039 RMK A01 T10211092  RH  058%=      5-min Rain = 0
KFL1 150318Z 03005KT M02/M09 A3039 RMK A01 T10201091  RH  058%=      5-min Rain = 0
KFL1 150319Z 03006KT M02/M09 A3039 RMK A01 T10191091  RH  058%=      5-min Rain = 0
KFL1 150320Z 03006KT M02/M09 A3039 RMK A01 T10181090  RH  058%=      5-min Rain = 0
KFL1 150321Z 03006KT M02/M09 A3039 RMK A01 T10181091  RH  057%=      5-min Rain = 0
KFL1 150322Z 03006KT M02/M09 A3039 RMK A01 T10171090  RH  058%=      5-min Rain = 0
KFL1 150323Z 03006KT M02/M09 A3039 RMK A01 T10191092  RH  057%=      5-min Rain = 0
KFL1 150324Z 04006KT M02/M09 A3039 RMK A01 T10191092  RH  057%=      5-min Rain = 0
KFL1 150325Z 04005KT M02/M09 A3039 RMK A01 T10191093  RH  057%=      5-min Rain = 0
KFL1 150326Z 03005KT M02/M09 A3039 RMK A01 T10161093  RH  056%=      5-min Rain = 0
KFL1 150327Z 03006KT M01/M09 A3039 RMK A01 T10121092  RH  055%=      5-min Rain = 0
KFL1 150328Z 03007KT M01/M09 A3039 RMK A01 T10081092  RH  053%=      5-min Rain = 0
KFL1 150329Z 04007KT M00/M09 A3039 RMK A01 T10011091  RH  051%=      5-min Rain = 0
KFL1 150330Z 03008KT 00/M09 A3039 RMK A01 T00041093  RH  048%=      5-min Rain = 0
KFL1 150331Z 03007KT 01/M09 A3039 RMK A01 T00091092  RH  047%=      5-min Rain = 0
KFL1 150332Z 03007KT 01/M09 A3039 RMK A01 T00071094  RH  047%=      5-min Rain = 0
KFL1 150333Z 03007KT M00/M10 A3039 RMK A01 T10011096  RH  049%=      5-min Rain = 0
KFL1 150334Z 03007KT M00/M09 A3039 RMK A01 T10031094  RH  050%=      5-min Rain = 0
KFL1 150335Z 04007KT M00/M10 A3039 RMK A01 T10041095  RH  050%=      5-min Rain = 0
KFL1 150336Z 03007KT 00/M09 A3039 RMK A01 T00021094  RH  049%=      5-min Rain = 0
KFL1 150337Z 04007KT 01/M09 A3039 RMK A01 T00081094  RH  047%=      5-min Rain = 0
KFL1 150338Z 04008KT 01/M10 A3039 RMK A01 T00101095  RH  045%=      5-min Rain = 0
KFL1 150339Z 04007KT 01/M10 A3039 RMK A01 T00111096  RH  045%=      5-min Rain = 0
KFL1 150340Z 04008KT 01/M10 A3039 RMK A01 T00141095  RH  044%=      5-min Rain = 0
KFL1 150341Z 04007KT 02/M10 A3039 RMK A01 T00161095  RH  043%=      5-min Rain = 0
KFL1 150342Z 03008KT 02/M09 A3039 RMK A01 T00191094  RH  043%=      5-min Rain = 0
KFL1 150343Z 04008KT 02/M10 A3039 RMK A01 T00191095  RH  043%=      5-min Rain = 0
KFL1 150344Z 04007KT 02/M09 A3039 RMK A01 T00201093  RH  043%=      5-min Rain = 0
KFL1 150345Z 04008KT 02/M09 A3039 RMK A01 T00211094  RH  042%=      5-min Rain = 0
KFL1 150346Z 04008KT 02/M09 A3039 RMK A01 T00221093  RH  042%=      5-min Rain = 0
KFL1 150347Z 04008KT 02/M09 A3039 RMK A01 T00231093  RH  042%=      5-min Rain = 0
KFL1 150348Z 04009KT 02/M09 A3039 RMK A01 T00241093  RH  042%=      5-min Rain = 0
KFL1 150349Z 04008KT 02/M10 A3039 RMK A01 T00221095  RH  042%=      5-min Rain = 0
KFL1 150350Z 04008KT 02/M10 A304 RMK A01 T00221095  RH  042%=      5-min Rain = 0
KFL1 150351Z 03007KT 02/M10 A304 RMK A01 T00211096  RH  042%=      5-min Rain = 0
KFL1 150352Z 03007KT 02/M10 A304 RMK A01 T00191097  RH  042%=      5-min Rain = 0
KFL1 150353Z 03006KT 02/M10 A3039 RMK A01 T00191096  RH  042%=      5-min Rain = 0
KFL1 150354Z 03008KT 02/M10 A3039 RMK A01 T00171097  RH  042%=      5-min Rain = 0
KFL1 150355Z 04008KT 02/M10 A3039 RMK A01 T00161097  RH  043%=      5-min Rain = 0
KFL1 150356Z 04007KT 01/M10 A3039 RMK A01 T00131098  RH  043%=      5-min Rain = 0
KFL1 150357Z 04008KT 01/M10 A3039 RMK A01 T00121097  RH  044%=      5-min Rain = 0
KFL1 150358Z 04008KT 01/M10 A3039 RMK A01 T00131097  RH  044%=      5-min Rain = 0
KFL1 150359Z 04008KT 02/M10 A3039 RMK A01 T00171096  RH  043%=      5-min Rain = 0
KFL1 150400Z 04007KT 02/M10 A3039 RMK A01 T00201095  RH  042%=      5-min Rain = 0
KFL1 150401Z 03007KT 02/M10 A304 RMK A01 T00231095  RH  041%=      5-min Rain = 0
KFL1 150402Z 03008KT 02/M10 A304 RMK A01 T00241096  RH  041%=      5-min Rain = 0
KFL1 150403Z 04008KT 02/M10 A304 RMK A01 T00241096  RH  041%=      5-min Rain = 0
KFL1 150404Z 03008KT 03/M09 A304 RMK A01 T00271094  RH  041%=      5-min Rain = 0
KFL1 150405Z 03007KT 03/M10 A304 RMK A01 T00261096  RH  040%=      5-min Rain = 0
KFL1 150406Z 03006KT 03/M09 A304 RMK A01 T00291094  RH  040%=      5-min Rain = 0
KFL1 150407Z 03007KT 03/M09 A304 RMK A01 T00291093  RH  040%=      5-min Rain = 0
KFL1 150408Z 03007KT 02/M10 A304 RMK A01 T00231096  RH  041%=      5-min Rain = 0
KFL1 150409Z 03007KT 02/M10 A304 RMK A01 T00171096  RH  043%=      5-min Rain = 0
KFL1 150410Z 03007KT 01/M10 A304 RMK A01 T00121096  RH  044%=      5-min Rain = 0
KFL1 150411Z 03007KT 01/M10 A304 RMK A01 T00091096  RH  045%=      5-min Rain = 0
KFL1 150412Z 03007KT 01/M10 A304 RMK A01 T00071096  RH  046%=      5-min Rain = 0
KFL1 150413Z 03007KT 01/M09 A304 RMK A01 T00071094  RH  047%=      5-min Rain = 0
KFL1 150414Z 03006KT 01/M10 A304 RMK A01 T00051096  RH  047%=      5-min Rain = 0
KFL1 150415Z 03006KT 01/M09 A304 RMK A01 T00051094  RH  047%=      5-min Rain = 0
KFL1 150416Z 03006KT 01/M09 A304 RMK A01 T00051093  RH  048%=      5-min Rain = 0
KFL1 150417Z 03006KT 00/M09 A304 RMK A01 T00031093  RH  048%=      5-min Rain = 0
KFL1 150418Z 03007KT 00/M09 A304 RMK A01 T00011094  RH  049%=      5-min Rain = 0
KFL1 150419Z 03007KT M00/M09 A304 RMK A01 T10011094  RH  049%=      5-min Rain = 0
KFL1 150420Z 03007KT M00/M09 A304 RMK A01 T10011094  RH  049%=      5-min Rain = 0
KFL1 150421Z 03007KT 00/M09 A304 RMK A01 T00021092  RH  049%=      5-min Rain = 0
KFL1 150422Z 04006KT 00/M09 A304 RMK A01 T00031094  RH  048%=      5-min Rain = 0
KFL1 150423Z 03007KT 01/M09 A304 RMK A01 T00061094  RH  047%=      5-min Rain = 0
KFL1 150424Z 03007KT 01/M09 A304 RMK A01 T00101094  RH  046%=      5-min Rain = 0
KFL1 150425Z 03008KT 01/M10 A304 RMK A01 T00141095  RH  044%=      5-min Rain = 0
KFL1 150426Z 03008KT 02/M10 A304 RMK A01 T00151096  RH  044%=      5-min Rain = 0
KFL1 150427Z 03008KT 01/M10 A304 RMK A01 T00141096  RH  044%=      5-min Rain = 0
KFL1 150428Z 03007KT 01/M10 A304 RMK A01 T00131096  RH  044%=      5-min Rain = 0
KFL1 150429Z 03007KT 01/M10 A304 RMK A01 T00091096  RH  045%=      5-min Rain = 0
KFL1 150430Z 03007KT 01/M10 A304 RMK A01 T00051098  RH  046%=      5-min Rain = 0
KFL1 150431Z 03007KT 00/M10 A304 RMK A01 T00031096  RH  048%=      5-min Rain = 0
KFL1 150432Z 03007KT 00/10 A304 RMK A01 T00000-95  RH  049%=      5-min Rain = 0
KFL1 150433Z 03007KT M00/M10 A304 RMK A01 T10041095  RH  050%=      5-min Rain = 0
KFL1 150434Z 03007KT M01/M09 A304 RMK A01 T10071094  RH  051%=      5-min Rain = 0
KFL1 150435Z 03007KT M01/M09 A304 RMK A01 T10081094  RH  052%=      5-min Rain = 0
KFL1 150436Z 03008KT M01/M09 A304 RMK A01 T10061094  RH  051%=      5-min Rain = 0
KFL1 150437Z 03008KT M00/M09 A304 RMK A01 T10021092  RH  051%=      5-min Rain = 0
KFL1 150438Z 03008KT 00/M09 A304 RMK A01 T00011093  RH  049%=      5-min Rain = 0
KFL1 150439Z 03008KT 01/M09 A304 RMK A01 T00051092  RH  048%=      5-min Rain = 0
KFL1 150440Z 03007KT 01/M09 A304 RMK A01 T00081092  RH  047%=      5-min Rain = 0
KFL1 150441Z 03006KT 01/M09 A304 RMK A01 T00091094  RH  046%=      5-min Rain = 0
KFL1 150442Z 03006KT 01/M09 A304 RMK A01 T00111094  RH  045%=      5-min Rain = 0
KFL1 150443Z 03006KT 01/M09 A304 RMK A01 T00121094  RH  045%=      5-min Rain = 0
KFL1 150444Z 03007KT 01/M10 A304 RMK A01 T00111096  RH  045%=      5-min Rain = 0
KFL1 150445Z 03007KT 01/M10 A304 RMK A01 T00091097  RH  045%=      5-min Rain = 0
KFL1 150446Z 03007KT 01/M10 A304 RMK A01 T00051097  RH  046%=      5-min Rain = 0
KFL1 150447Z 03009KT 00/M10 A304 RMK A01 T00011098  RH  048%=      5-min Rain = 0
KFL1 150448Z 03009KT M00/M10 A304 RMK A01 T10011098  RH  048%=      5-min Rain = 0
KFL1 150449Z 03008KT 00/M09 A304 RMK A01 T00021094  RH  048%=      5-min Rain = 0
KFL1 150450Z 04008KT 01/M09 A304 RMK A01 T00061094  RH  047%=      5-min Rain = 0
KFL1 150451Z 03008KT 01/M09 A304 RMK A01 T00131092  RH  046%=      5-min Rain = 0
KFL1 150452Z 04007KT 02/M09 A304 RMK A01 T00171093  RH  044%=      5-min Rain = 0
KFL1 150453Z 04006KT 02/M09 A304 RMK A01 T00201093  RH  043%=      5-min Rain = 0
KFL1 150454Z 03007KT 02/M10 A304 RMK A01 T00221095  RH  042%=      5-min Rain = 0
KFL1 150455Z 03007KT 02/M10 A304 RMK A01 T00231095  RH  041%=      5-min Rain = 0
KFL1 150456Z 03007KT 02/M09 A304 RMK A01 T00211093  RH  043%=      5-min Rain = 0
KFL1 150457Z 03008KT 01/M10 A304 RMK A01 T00121096  RH  044%=      5-min Rain = 0
KFL1 150458Z 03008KT 01/M10 A304 RMK A01 T00071097  RH  046%=      5-min Rain = 0
KFL1 150459Z 03008KT 01/M10 A304 RMK A01 T00061095  RH  047%=      5-min Rain = 0
KFL1 150500Z 03007KT 00/M10 A304 RMK A01 T00041096  RH  047%=      5-min Rain = 0
KFL1 150501Z 03007KT 00/M10 A304 RMK A01 T00041095  RH  047%=      5-min Rain = 0
KFL1 150502Z 03007KT 01/M09 A304 RMK A01 T00051093  RH  048%=      5-min Rain = 0
KFL1 150503Z 03007KT 00/M09 A304 RMK A01 T00031094  RH  048%=      5-min Rain = 0
KFL1 150504Z 03007KT 00/M09 A304 RMK A01 T00021094  RH  048%=      5-min Rain = 0
KFL1 150505Z 03007KT 00/M10 A304 RMK A01 T00011095  RH  049%=      5-min Rain = 0
KFL1 150506Z 03007KT M00/M10 A304 RMK A01 T10011096  RH  049%=      5-min Rain = 0
KFL1 150507Z 04006KT M00/M10 A304 RMK A01 T10011095  RH  049%=      5-min Rain = 0
KFL1 150508Z 03005KT M00/M10 A304 RMK A01 T10011096  RH  049%=      5-min Rain = 0
KFL1 150509Z 03005KT 00/M10 A304 RMK A01 T00011095  RH  048%=      5-min Rain = 0
KFL1 150510Z 03006KT 00/M10 A304 RMK A01 T00021095  RH  048%=      5-min Rain = 0
KFL1 150511Z 03006KT 00/M10 A304 RMK A01 T00031096  RH  048%=      5-min Rain = 0
KFL1 150512Z 03005KT 00/M10 A304 RMK A01 T00031097  RH  047%=      5-min Rain = 0
KFL1 150513Z 03006KT 01/M10 A304 RMK A01 T00051097  RH  046%=      5-min Rain = 0
KFL1 150514Z 03006KT 01/M10 A304 RMK A01 T00061097  RH  046%=      5-min Rain = 0
KFL1 150515Z 02006KT 01/M10 A304 RMK A01 T00051099  RH  046%=      5-min Rain = 0
KFL1 150516Z 02006KT 00/M10 A304 RMK A01 T00041099  RH  046%=      5-min Rain = 0
KFL1 150517Z 03005KT 00/M10 A304 RMK A01 T00021099  RH  047%=      5-min Rain = 0
KFL1 150518Z 03005KT M00/M10 A304 RMK A01 T10021099  RH  048%=      5-min Rain = 0
KFL1 150519Z 03006KT M01/M10 A304 RMK A01 T10051098  RH  049%=      5-min Rain = 0
KFL1 150520Z 03005KT M01/M10 A304 RMK A01 T10061098  RH  050%=      5-min Rain = 0
KFL1 150521Z 03005KT M01/M10 A304 RMK A01 T10061099  RH  049%=      5-min Rain = 0
KFL1 150522Z 03005KT M01/M10 A304 RMK A01 T10051099  RH  049%=      5-min Rain = 0
KFL1 150523Z 03006KT M00/M10 A304 RMK A01 T10031099  RH  048%=      5-min Rain = 0
KFL1 150524Z 03006KT M00/M10 A304 RMK A01 T10031100  RH  048%=      5-min Rain = 0
KFL1 150525Z 03005KT M00/M10 A304 RMK A01 T10041098  RH  049%=      5-min Rain = 0
KFL1 150526Z 03007KT M01/M10 A304 RMK A01 T10051099  RH  049%=      5-min Rain = 0
KFL1 150527Z 03006KT M00/M10 A304 RMK A01 T10041097  RH  050%=      5-min Rain = 0
KFL1 150528Z 03005KT M01/M10 A304 RMK A01 T10051096  RH  050%=      5-min Rain = 0
KFL1 150529Z 03005KT M01/M10 A304 RMK A01 T10071098  RH  050%=      5-min Rain = 0
KFL1 150530Z 03005KT M01/M10 A304 RMK A01 T10081098  RH  051%=      5-min Rain = 0
KFL1 150531Z 03006KT M01/M10 A304 RMK A01 T10081098  RH  051%=      5-min Rain = 0
KFL1 150532Z 03006KT M01/M10 A304 RMK A01 T10081098  RH  050%=      5-min Rain = 0
KFL1 150533Z 03005KT M01/M10 A304 RMK A01 T10071098  RH  050%=      5-min Rain = 0
KFL1 150534Z 04006KT M01/M10 A304 RMK A01 T10081100  RH  050%=      5-min Rain = 0
KFL1 150535Z 03007KT M01/M10 A304 RMK A01 T10071101  RH  049%=      5-min Rain = 0
KFL1 150536Z 03007KT M00/M10 A304 RMK A01 T10031099  RH  048%=      5-min Rain = 0
KFL1 150537Z 03007KT 00/10 A304 RMK A01 T00-00-99  RH  047%=      5-min Rain = 0
KFL1 150538Z 03006KT 00/M10 A304 RMK A01 T00021098  RH  047%=      5-min Rain = 0
KFL1 150539Z 02006KT 00/M10 A304 RMK A01 T00031099  RH  046%=      5-min Rain = 0
KFL1 150540Z 03006KT 00/10 A304 RMK A01 T00000-100  RH  047%=      5-min Rain = 0
KFL1 150541Z 03007KT M01/M10 A304 RMK A01 T10051099  RH  049%=      5-min Rain = 0
KFL1 150542Z 03008KT M01/M10 A304 RMK A01 T10101101  RH  050%=      5-min Rain = 0
KFL1 150543Z 03007KT M01/M10 A304 RMK A01 T10121100  RH  051%=      5-min Rain = 0
KFL1 150544Z 04007KT M01/M10 A304 RMK A01 T10091096  RH  052%=      5-min Rain = 0
KFL1 150545Z 03007KT M01/M10 A304 RMK A01 T10071096  RH  051%=      5-min Rain = 0
KFL1 150546Z 03007KT M01/M10 A304 RMK A01 T10071098  RH  050%=      5-min Rain = 0
KFL1 150547Z 03006KT M01/M10 A304 RMK A01 T10081098  RH  050%=      5-min Rain = 0
KFL1 150548Z 03006KT M01/M10 A304 RMK A01 T10071097  RH  051%=      5-min Rain = 0
KFL1 150549Z 03006KT M01/M10 A304 RMK A01 T10061098  RH  050%=      5-min Rain = 0
KFL1 150550Z 03007KT M00/M10 A304 RMK A01 T10041099  RH  049%=      5-min Rain = 0
KFL1 150551Z 03008KT M00/M10 A304 RMK A01 T10021099  RH  048%=      5-min Rain = 0
KFL1 150552Z 03008KT M00/M10 A304 RMK A01 T10021099  RH  048%=      5-min Rain = 0
KFL1 150553Z 03007KT M00/M10 A304 RMK A01 T10031098  RH  049%=      5-min Rain = 0
KFL1 150554Z 03007KT M01/M10 A304 RMK A01 T10061099  RH  049%=      5-min Rain = 0
KFL1 150555Z 03007KT M01/M10 A304 RMK A01 T10071099  RH  050%=      5-min Rain = 0
KFL1 150556Z 03006KT M01/M10 A304 RMK A01 T10071098  RH  050%=      5-min Rain = 0
KFL1 150557Z 03006KT M01/M10 A304 RMK A01 T10061099  RH  049%=      5-min Rain = 0
KFL1 150558Z 03006KT M01/M10 A304 RMK A01 T10051100  RH  049%=      5-min Rain = 0
KFL1 150559Z 03006KT M00/M10 A3041 RMK A01 T10021098  RH  048%=      5-min Rain = 0

Page generated in 0.0727 seconds.